JAL10 RJTT-KORD
Flight info
| Callsign | JAL10 |
|---|---|
| Flight time | 11h 38m |
| Altitude | 29000 |
| Route | INUBO Y808 IGARA Y815 MAKMU R580 OPULO/N0504F310 R580 OPAKE DCT PINSO A342 DRAPP DCT CRYPT/N0492F330 A342 CDB DCT 55N160W 54N150W 53N140W DCT MANJO DCT 51N130W/N0485F350 50N120W DCT DORSE DCT MLS DCT GILTE DCT FSD DCT ZZIPR FYTTE7 |
| Aircraft | B77W/H-SDE1E2E3FGHIJ2J3J4J5M1RWXY/LB1D1 |
Departure
| Time | 2026-05-04 05:09 |
|---|---|
| Airport | Tokyo Haneda International Airport (RJTT) |
Arrival
| Time | 2026-05-04 16:47 |
|---|---|
| Airport | Chicago O'Hare International Airport (KORD) |
| Time | Latitude | Longitude | Altitude | Speed | Heading |
|---|---|---|---|---|---|
| 2026-05-04 04:50 | 35.54891 | 139.76746 | 34 ft | 0 kts | 150° |
| 2026-05-04 04:57 | 35.54892 | 139.76746 | 34 ft | 0 kts | 150° |
| 2026-05-04 04:57 | 35.54891 | 139.76746 | 34 ft | 0 kts | 150° |
| 2026-05-04 04:58 | 35.54892 | 139.76746 | 34 ft | 0 kts | 150° |
| 2026-05-04 04:58 | 35.54891 | 139.76746 | 34 ft | 0 kts | 150° |
| 2026-05-04 04:59 | 35.54892 | 139.76746 | 34 ft | 0 kts | 150° |
| 2026-05-04 04:59 | 35.54895 | 139.76743 | 34 ft | 1 kts | 150° |
| 2026-05-04 05:00 | 35.54908 | 139.76733 | 34 ft | 2 kts | 136° |
| 2026-05-04 05:00 | 35.54917 | 139.76718 | 34 ft | 2 kts | 122° |
| 2026-05-04 05:00 | 35.54928 | 139.76685 | 34 ft | 2 kts | 97° |
| 2026-05-04 05:01 | 35.54929 | 139.76666 | 34 ft | 2 kts | 84° |
| 2026-05-04 05:01 | 35.54926 | 139.76648 | 34 ft | 2 kts | 72° |
| 2026-05-04 05:01 | 35.54921 | 139.76633 | 34 ft | 1 kts | 60° |
| 2026-05-04 05:01 | 35.54919 | 139.76628 | 34 ft | 0 kts | 58° |
| 2026-05-04 05:04 | 35.54962 | 139.76715 | 34 ft | 17 kts | 60° |
| 2026-05-04 05:04 | 35.55040 | 139.76881 | 34 ft | 24 kts | 61° |
| 2026-05-04 05:04 | 35.55120 | 139.77049 | 34 ft | 20 kts | 60° |
| 2026-05-04 05:06 | 35.55910 | 139.77267 | 34 ft | 23 kts | 45° |
| 2026-05-04 05:06 | 35.55994 | 139.77434 | 34 ft | 22 kts | 60° |
| 2026-05-04 05:06 | 35.56074 | 139.77605 | 34 ft | 23 kts | 59° |
| 2026-05-04 05:07 | 35.56160 | 139.77780 | 34 ft | 23 kts | 59° |
| 2026-05-04 05:07 | 35.56243 | 139.77956 | 34 ft | 23 kts | 60° |
| 2026-05-04 05:07 | 35.56325 | 139.78131 | 34 ft | 23 kts | 60° |
| 2026-05-04 05:09 | 35.52829 | 139.81450 | 1121 ft | 205 kts | 142° |
| 2026-05-04 05:09 | 35.51798 | 139.82742 | 1534 ft | 219 kts | 142° |
| 2026-05-04 05:10 | 35.50686 | 139.84168 | 1697 ft | 241 kts | 141° |
| 2026-05-04 05:10 | 35.49488 | 139.85718 | 1938 ft | 261 kts | 141° |
| 2026-05-04 05:10 | 35.48223 | 139.87373 | 2515 ft | 266 kts | 141° |
| 2026-05-04 05:10 | 35.46947 | 139.89041 | 3083 ft | 272 kts | 140° |
| 2026-05-04 05:11 | 35.45878 | 139.91037 | 3524 ft | 294 kts | 114° |
| 2026-05-04 05:11 | 35.45614 | 139.93549 | 4175 ft | 304 kts | 86° |
| 2026-05-04 05:11 | 35.46238 | 139.96019 | 4744 ft | 310 kts | 59° |
| 2026-05-04 05:11 | 35.47673 | 139.98065 | 5047 ft | 319 kts | 33° |
| 2026-05-04 05:12 | 35.49643 | 139.99269 | 5474 ft | 315 kts | 6° |
| 2026-05-04 05:12 | 35.51769 | 139.99397 | 6149 ft | 300 kts | 342° |
| 2026-05-04 05:12 | 35.53744 | 139.98711 | 6736 ft | 295 kts | 332° |
| 2026-05-04 05:12 | 35.55676 | 139.97897 | 7454 ft | 293 kts | 334° |
| 2026-05-04 05:13 | 35.57638 | 139.97153 | 8058 ft | 297 kts | 335° |
| 2026-05-04 05:13 | 35.59668 | 139.96440 | 8614 ft | 301 kts | 336° |
| 2026-05-04 05:13 | 35.61788 | 139.96081 | 9207 ft | 314 kts | 351° |
| 2026-05-04 05:13 | 35.63995 | 139.96175 | 9753 ft | 320 kts | 355° |
| 2026-05-04 05:14 | 35.66257 | 139.96343 | 10175 ft | 329 kts | 354° |
| 2026-05-04 05:14 | 35.68585 | 139.96503 | 10345 ft | 346 kts | 354° |
| 2026-05-04 05:14 | 35.71074 | 139.96658 | 10527 ft | 362 kts | 353° |
| 2026-05-04 05:14 | 35.73627 | 139.96451 | 10595 ft | 374 kts | 342° |
| 2026-05-04 05:15 | 35.76186 | 139.95618 | 10601 ft | 387 kts | 332° |
| 2026-05-04 05:15 | 35.78771 | 139.94421 | 10819 ft | 401 kts | 331° |
| 2026-05-04 05:15 | 35.81395 | 139.93190 | 11548 ft | 401 kts | 330° |
| 2026-05-04 05:15 | 35.84002 | 139.91966 | 12254 ft | 402 kts | 329° |
| 2026-05-04 05:16 | 35.86644 | 139.90724 | 12881 ft | 406 kts | 328° |
| 2026-05-04 05:16 | 35.89284 | 139.89479 | 13381 ft | 412 kts | 328° |
| 2026-05-04 05:16 | 35.91976 | 139.88209 | 13898 ft | 416 kts | 328° |
| 2026-05-04 05:16 | 35.94751 | 139.87027 | 14431 ft | 429 kts | 335° |
| 2026-05-04 05:17 | 35.97780 | 139.86388 | 15050 ft | 445 kts | 345° |
| 2026-05-04 05:17 | 36.00923 | 139.86385 | 15626 ft | 459 kts | 356° |
| 2026-05-04 05:17 | 36.04139 | 139.87036 | 16044 ft | 478 kts | 7° |
| 2026-05-04 05:17 | 36.07343 | 139.88371 | 16363 ft | 494 kts | 15° |
| 2026-05-04 05:18 | 36.10538 | 139.90108 | 16497 ft | 509 kts | 22° |
| 2026-05-04 05:18 | 36.13601 | 139.92429 | 16481 ft | 512 kts | 32° |
| 2026-05-04 05:18 | 36.16334 | 139.95283 | 16514 ft | 518 kts | 42° |
| 2026-05-04 05:18 | 36.18731 | 139.98637 | 16523 ft | 521 kts | 53° |
| 2026-05-04 05:19 | 36.20732 | 140.02455 | 16499 ft | 522 kts | 63° |
| 2026-05-04 05:19 | 36.22237 | 140.06543 | 16515 ft | 522 kts | 73° |
| 2026-05-04 05:19 | 36.23239 | 140.10852 | 16492 ft | 519 kts | 83° |
| 2026-05-04 05:19 | 36.23844 | 140.15234 | 16509 ft | 515 kts | 87° |
| 2026-05-04 05:20 | 36.24122 | 140.19614 | 16530 ft | 508 kts | 96° |
| 2026-05-04 05:20 | 36.23874 | 140.23962 | 16509 ft | 504 kts | 106° |
| 2026-05-04 05:20 | 36.23118 | 140.28139 | 16517 ft | 494 kts | 116° |
| 2026-05-04 05:20 | 36.21843 | 140.32136 | 16660 ft | 490 kts | 126° |
| 2026-05-04 05:21 | 36.20141 | 140.35701 | 17224 ft | 477 kts | 135° |
| 2026-05-04 05:21 | 36.18103 | 140.38826 | 17954 ft | 461 kts | 144° |
| 2026-05-04 05:21 | 36.15806 | 140.41518 | 18474 ft | 450 kts | 152° |
| 2026-05-04 05:21 | 36.13274 | 140.43724 | 18855 ft | 440 kts | 161° |
| 2026-05-04 05:22 | 36.10602 | 140.45579 | 19292 ft | 442 kts | 161° |
| 2026-05-04 05:22 | 36.07951 | 140.47542 | 20056 ft | 440 kts | 159° |
| 2026-05-04 05:22 | 36.05384 | 140.49588 | 20641 ft | 442 kts | 158° |
| 2026-05-04 05:22 | 36.02788 | 140.51772 | 20975 ft | 450 kts | 156° |
| 2026-05-04 05:23 | 36.00227 | 140.54025 | 21447 ft | 453 kts | 155° |
| 2026-05-04 05:23 | 35.97664 | 140.56337 | 21852 ft | 457 kts | 155° |
| 2026-05-04 05:23 | 35.95121 | 140.58679 | 22361 ft | 458 kts | 154° |
| 2026-05-04 05:23 | 35.92545 | 140.61078 | 22779 ft | 461 kts | 154° |
| 2026-05-04 05:24 | 35.90013 | 140.63454 | 23112 ft | 465 kts | 154° |
| 2026-05-04 05:24 | 35.87415 | 140.65904 | 23485 ft | 468 kts | 154° |
| 2026-05-04 05:24 | 35.84787 | 140.68394 | 23842 ft | 472 kts | 154° |
| 2026-05-04 05:24 | 35.82185 | 140.70868 | 24262 ft | 473 kts | 154° |
| 2026-05-04 05:25 | 35.79590 | 140.73340 | 24691 ft | 474 kts | 154° |
| 2026-05-04 05:25 | 35.76953 | 140.75882 | 25003 ft | 482 kts | 151° |
| 2026-05-04 05:25 | 35.74497 | 140.78818 | 25175 ft | 503 kts | 142° |
| 2026-05-04 05:25 | 35.72346 | 140.82294 | 25456 ft | 521 kts | 133° |
| 2026-05-04 05:26 | 35.70628 | 140.86214 | 26121 ft | 530 kts | 123° |
| 2026-05-04 05:26 | 35.69295 | 140.90505 | 26671 ft | 535 kts | 118° |
| 2026-05-04 05:26 | 35.68069 | 140.94835 | 26776 ft | 544 kts | 118° |
| 2026-05-04 05:26 | 35.66803 | 140.99287 | 26904 ft | 551 kts | 118° |
| 2026-05-04 05:27 | 35.65531 | 141.03720 | 27208 ft | 554 kts | 118° |
| 2026-05-04 05:28 | 35.56350 | 141.34978 | 28603 ft | 554 kts | 118° |
| 2026-05-04 05:29 | 35.53680 | 141.43924 | 28622 ft | 553 kts | 118° |
| 2026-05-04 05:29 | 35.51036 | 141.52748 | 28617 ft | 554 kts | 118° |
| 2026-05-04 05:31 | 35.44122 | 141.84770 | 28623 ft | 574 kts | 97° |
| 2026-05-04 05:31 | 35.44097 | 141.89638 | 28620 ft | 575 kts | 96° |
| 2026-05-04 05:32 | 35.44046 | 141.99445 | 28616 ft | 575 kts | 96° |
| 2026-05-04 05:33 | 35.43938 | 142.14169 | 28633 ft | 575 kts | 96° |
| 2026-05-04 05:33 | 35.43853 | 142.23930 | 28639 ft | 572 kts | 96° |
| 2026-05-04 05:34 | 35.43754 | 142.33702 | 28637 ft | 574 kts | 96° |
| 2026-05-04 05:34 | 35.43648 | 142.43480 | 28648 ft | 572 kts | 96° |
| 2026-05-04 05:35 | 35.43531 | 142.53244 | 28663 ft | 574 kts | 96° |
| 2026-05-04 05:35 | 35.43407 | 142.63023 | 28662 ft | 572 kts | 96° |
| 2026-05-04 05:36 | 35.43276 | 142.72815 | 28656 ft | 569 kts | 97° |
| 2026-05-04 05:36 | 35.43135 | 142.82509 | 28658 ft | 571 kts | 96° |
| 2026-05-04 05:37 | 35.42989 | 142.92195 | 28642 ft | 568 kts | 96° |
| 2026-05-04 05:37 | 35.42833 | 143.01916 | 28656 ft | 567 kts | 96° |
| 2026-05-04 05:38 | 35.42841 | 143.16489 | 28653 ft | 572 kts | 87° |
| 2026-05-04 05:38 | 35.44740 | 143.25993 | 28666 ft | 580 kts | 70° |
| 2026-05-04 05:39 | 35.51189 | 143.38426 | 28671 ft | 580 kts | 44° |
| 2026-05-04 05:40 | 35.60954 | 143.47105 | 28670 ft | 575 kts | 25° |
| 2026-05-04 05:40 | 35.67921 | 143.51971 | 28658 ft | 577 kts | 26° |
| 2026-05-04 05:41 | 35.74865 | 143.56892 | 28671 ft | 575 kts | 26° |
| 2026-05-04 05:41 | 35.81852 | 143.61896 | 28647 ft | 580 kts | 26° |
| 2026-05-04 05:42 | 35.88834 | 143.66934 | 28640 ft | 578 kts | 27° |
| 2026-05-04 05:42 | 35.95798 | 143.71983 | 28637 ft | 583 kts | 27° |
| 2026-05-04 05:43 | 36.02732 | 143.77031 | 28626 ft | 580 kts | 27° |
| 2026-05-04 05:45 | 36.31640 | 143.94173 | 28618 ft | 564 kts | 5° |
| 2026-05-04 05:47 | 36.62723 | 144.01416 | 28613 ft | 565 kts | 5° |
| 2026-05-04 05:47 | 36.70489 | 144.03239 | 28609 ft | 567 kts | 4° |
| 2026-05-04 05:48 | 36.78230 | 144.05061 | 28607 ft | 567 kts | 4° |
| 2026-05-04 05:48 | 36.86029 | 144.06902 | 28599 ft | 569 kts | 4° |
| 2026-05-04 05:49 | 36.93792 | 144.08739 | 28591 ft | 564 kts | 4° |
| 2026-05-04 05:49 | 37.01558 | 144.10577 | 28595 ft | 567 kts | 3° |
| 2026-05-04 05:51 | 37.32641 | 144.17982 | 28584 ft | 570 kts | 3° |
| 2026-05-04 05:52 | 37.40453 | 144.19853 | 28581 ft | 570 kts | 4° |
| 2026-05-04 05:52 | 37.48270 | 144.21732 | 28585 ft | 569 kts | 3° |
| 2026-05-04 05:54 | 37.79536 | 144.29275 | 28589 ft | 572 kts | 3° |
| 2026-05-04 05:55 | 37.87403 | 144.31183 | 28594 ft | 574 kts | 3° |
| 2026-05-04 05:55 | 37.95257 | 144.33095 | 28597 ft | 572 kts | 3° |
| 2026-05-04 05:56 | 38.03135 | 144.35013 | 28604 ft | 575 kts | 3° |
| 2026-05-04 05:56 | 38.10968 | 144.36926 | 28602 ft | 576 kts | 3° |
| 2026-05-04 05:57 | 38.18854 | 144.38856 | 28577 ft | 574 kts | 3° |
| 2026-05-04 05:57 | 38.26731 | 144.40788 | 28573 ft | 576 kts | 2° |
| 2026-05-04 05:58 | 38.34631 | 144.42731 | 28570 ft | 577 kts | 2° |
| 2026-05-04 05:58 | 38.42566 | 144.44685 | 28566 ft | 577 kts | 2° |
| 2026-05-04 05:59 | 38.50463 | 144.46635 | 28570 ft | 578 kts | 2° |
| 2026-05-04 05:59 | 38.58401 | 144.48599 | 28561 ft | 579 kts | 2° |
| 2026-05-04 06:00 | 38.66186 | 144.51387 | 28560 ft | 593 kts | 16° |
| 2026-05-04 06:00 | 38.73470 | 144.56740 | 28551 ft | 610 kts | 33° |
| 2026-05-04 06:01 | 38.79895 | 144.63834 | 28552 ft | 612 kts | 38° |
| 2026-05-04 06:03 | 39.05318 | 144.93126 | 28547 ft | 616 kts | 39° |
| 2026-05-04 06:05 | 39.33964 | 145.26440 | 28525 ft | 616 kts | 39° |
| 2026-05-04 06:06 | 39.40329 | 145.33894 | 28528 ft | 617 kts | 39° |
| 2026-05-04 06:06 | 39.46675 | 145.41344 | 28529 ft | 616 kts | 39° |
| 2026-05-04 06:07 | 39.53038 | 145.48834 | 28522 ft | 617 kts | 39° |
| 2026-05-04 06:07 | 39.59340 | 145.56271 | 28527 ft | 614 kts | 39° |
| 2026-05-04 06:08 | 39.65681 | 145.63773 | 28524 ft | 614 kts | 39° |
| 2026-05-04 06:08 | 39.71991 | 145.71258 | 28502 ft | 615 kts | 40° |
| 2026-05-04 06:09 | 39.78320 | 145.78784 | 28493 ft | 614 kts | 40° |
| 2026-05-04 06:11 | 40.03553 | 146.08989 | 28504 ft | 616 kts | 40° |
| 2026-05-04 06:13 | 40.28706 | 146.39416 | 28496 ft | 613 kts | 40° |
| 2026-05-04 06:14 | 40.50568 | 146.66130 | 28492 ft | 609 kts | 40° |
| 2026-05-04 06:15 | 40.56794 | 146.73781 | 28474 ft | 612 kts | 40° |
| 2026-05-04 06:15 | 40.63010 | 146.81442 | 28472 ft | 611 kts | 40° |
| 2026-05-04 06:16 | 40.69224 | 146.89121 | 28470 ft | 611 kts | 40° |
| 2026-05-04 06:16 | 40.75412 | 146.96788 | 28471 ft | 609 kts | 40° |
| 2026-05-04 06:17 | 40.81589 | 147.04462 | 28467 ft | 610 kts | 40° |
| 2026-05-04 06:17 | 40.87763 | 147.12154 | 28473 ft | 609 kts | 40° |
| 2026-05-04 06:18 | 40.93948 | 147.19878 | 28477 ft | 610 kts | 40° |
| 2026-05-04 06:20 | 41.18553 | 147.50821 | 28466 ft | 608 kts | 40° |
| 2026-05-04 06:21 | 41.33839 | 147.70216 | 28452 ft | 606 kts | 40° |
| 2026-05-04 06:22 | 41.39924 | 147.77972 | 28456 ft | 606 kts | 41° |
| 2026-05-04 06:25 | 41.82236 | 148.32669 | 28472 ft | 599 kts | 41° |
| 2026-05-04 06:26 | 41.88175 | 148.40549 | 28459 ft | 602 kts | 41° |
| 2026-05-04 06:26 | 41.94077 | 148.48399 | 28473 ft | 599 kts | 41° |
| 2026-05-04 06:27 | 42.08943 | 148.68259 | 28479 ft | 603 kts | 42° |
| 2026-05-04 06:28 | 42.14871 | 148.76216 | 28474 ft | 601 kts | 42° |
| 2026-05-04 06:28 | 42.20795 | 148.84189 | 28462 ft | 600 kts | 43° |
| 2026-05-04 06:29 | 42.26705 | 148.92168 | 28473 ft | 600 kts | 42° |
| 2026-05-04 06:29 | 42.32599 | 149.00145 | 28477 ft | 600 kts | 42° |
| 2026-05-04 06:30 | 42.38482 | 149.08130 | 28472 ft | 598 kts | 42° |
| 2026-05-04 06:30 | 42.44348 | 149.16115 | 28468 ft | 599 kts | 42° |
| 2026-05-04 06:31 | 42.50234 | 149.24149 | 28476 ft | 600 kts | 42° |
| 2026-05-04 06:31 | 42.56091 | 149.32165 | 28475 ft | 597 kts | 42° |
| 2026-05-04 06:33 | 42.79430 | 149.64340 | 28501 ft | 597 kts | 42° |
| 2026-05-04 06:34 | 42.85241 | 149.72407 | 28490 ft | 598 kts | 43° |
| 2026-05-04 06:34 | 42.91059 | 149.80510 | 28501 ft | 598 kts | 43° |
| 2026-05-04 06:36 | 43.14304 | 150.13112 | 28500 ft | 599 kts | 43° |
| 2026-05-04 06:37 | 43.20108 | 150.21310 | 28512 ft | 599 kts | 42° |
| 2026-05-04 06:37 | 43.25910 | 150.29530 | 28514 ft | 602 kts | 43° |
| 2026-05-04 06:38 | 43.31723 | 150.37790 | 28511 ft | 599 kts | 42° |
| 2026-05-04 06:40 | 43.54913 | 150.70985 | 28525 ft | 604 kts | 43° |
| 2026-05-04 06:40 | 43.60710 | 150.79347 | 28531 ft | 600 kts | 43° |
| 2026-05-04 06:41 | 43.66488 | 150.87703 | 28527 ft | 603 kts | 43° |
| 2026-05-04 06:41 | 43.72278 | 150.96103 | 28529 ft | 602 kts | 43° |
| 2026-05-04 06:42 | 43.78093 | 151.04564 | 28531 ft | 602 kts | 43° |
| 2026-05-04 06:44 | 44.01127 | 151.38333 | 28549 ft | 601 kts | 43° |
| 2026-05-04 06:44 | 44.06879 | 151.46831 | 28558 ft | 604 kts | 43° |
| 2026-05-04 06:45 | 44.12616 | 151.55330 | 28551 ft | 600 kts | 43° |
| 2026-05-04 06:45 | 44.18398 | 151.63922 | 28549 ft | 605 kts | 43° |
| 2026-05-04 06:46 | 44.24118 | 151.72452 | 28549 ft | 600 kts | 43° |
| 2026-05-04 06:46 | 44.29810 | 151.80965 | 28563 ft | 599 kts | 43° |
| 2026-05-04 06:48 | 44.52573 | 152.15262 | 28592 ft | 601 kts | 43° |
| 2026-05-04 06:50 | 44.75270 | 152.49889 | 28602 ft | 602 kts | 43° |
| 2026-05-04 06:51 | 44.80918 | 152.58574 | 28626 ft | 601 kts | 43° |
| 2026-05-04 06:51 | 44.86568 | 152.67287 | 28620 ft | 601 kts | 44° |
| 2026-05-04 06:52 | 44.92213 | 152.76018 | 28620 ft | 603 kts | 44° |
| 2026-05-04 06:52 | 44.97832 | 152.84741 | 28632 ft | 602 kts | 44° |
| 2026-05-04 06:53 | 45.03483 | 152.93538 | 28638 ft | 603 kts | 44° |
| 2026-05-04 06:53 | 45.09127 | 153.02353 | 28637 ft | 601 kts | 44° |
| 2026-05-04 06:54 | 45.14718 | 153.11116 | 28652 ft | 600 kts | 44° |
| 2026-05-04 06:54 | 45.20330 | 153.19934 | 28650 ft | 601 kts | 44° |
| 2026-05-04 06:55 | 45.25893 | 153.28706 | 28659 ft | 603 kts | 44° |
| 2026-05-04 06:55 | 45.31510 | 153.37592 | 28655 ft | 601 kts | 44° |
| 2026-05-04 06:57 | 45.53829 | 153.73183 | 28674 ft | 599 kts | 44° |
| 2026-05-04 06:58 | 45.59351 | 153.82155 | 28678 ft | 605 kts | 45° |
| 2026-05-04 06:58 | 45.64866 | 153.91164 | 28688 ft | 600 kts | 45° |
| 2026-05-04 06:59 | 45.70368 | 154.00174 | 28711 ft | 604 kts | 45° |
| 2026-05-04 06:59 | 45.75894 | 154.09251 | 28710 ft | 603 kts | 45° |
| 2026-05-04 07:01 | 45.97883 | 154.45666 | 28721 ft | 601 kts | 45° |
| 2026-05-04 07:02 | 46.03368 | 154.54823 | 28746 ft | 603 kts | 45° |
| 2026-05-04 07:02 | 46.08846 | 154.63998 | 28751 ft | 603 kts | 45° |
| 2026-05-04 07:03 | 46.14289 | 154.73149 | 28733 ft | 602 kts | 46° |
| 2026-05-04 07:03 | 46.19737 | 154.82336 | 28742 ft | 600 kts | 46° |
| 2026-05-04 07:04 | 46.25168 | 154.91524 | 28748 ft | 600 kts | 45° |
| 2026-05-04 07:04 | 46.30590 | 155.00728 | 28761 ft | 600 kts | 46° |
| 2026-05-04 07:05 | 46.36011 | 155.09961 | 28769 ft | 599 kts | 45° |
| 2026-05-04 07:05 | 46.41359 | 155.19102 | 28783 ft | 598 kts | 45° |
| 2026-05-04 07:06 | 46.49461 | 155.33005 | 28791 ft | 599 kts | 45° |
| 2026-05-04 07:07 | 46.54816 | 155.42235 | 28796 ft | 597 kts | 44° |
| 2026-05-04 07:09 | 46.76154 | 155.79318 | 28821 ft | 598 kts | 45° |
| 2026-05-04 07:09 | 46.81480 | 155.88654 | 28818 ft | 596 kts | 45° |
| 2026-05-04 07:10 | 46.86799 | 155.98006 | 28825 ft | 599 kts | 45° |
| 2026-05-04 07:12 | 47.07947 | 156.35521 | 28848 ft | 598 kts | 44° |
| 2026-05-04 07:12 | 47.13227 | 156.44968 | 28844 ft | 597 kts | 44° |
| 2026-05-04 07:13 | 47.18481 | 156.54398 | 28853 ft | 600 kts | 44° |
| 2026-05-04 07:13 | 47.23748 | 156.63890 | 28856 ft | 596 kts | 44° |
| 2026-05-04 07:14 | 47.36910 | 156.87744 | 28838 ft | 598 kts | 45° |
| 2026-05-04 07:15 | 47.42130 | 156.97264 | 28857 ft | 599 kts | 45° |
| 2026-05-04 07:15 | 47.47374 | 157.06860 | 28859 ft | 598 kts | 45° |
| 2026-05-04 07:16 | 47.52601 | 157.16460 | 28864 ft | 600 kts | 45° |
| 2026-05-04 07:16 | 47.57791 | 157.26028 | 28872 ft | 595 kts | 45° |
| 2026-05-04 07:17 | 47.62991 | 157.35643 | 28876 ft | 598 kts | 45° |
| 2026-05-04 07:17 | 47.68166 | 157.45250 | 28888 ft | 594 kts | 44° |
| 2026-05-04 07:18 | 47.73336 | 157.54878 | 28890 ft | 595 kts | 44° |
| 2026-05-04 07:18 | 47.78469 | 157.64475 | 28892 ft | 595 kts | 45° |
| 2026-05-04 07:19 | 47.83641 | 157.74171 | 28870 ft | 596 kts | 45° |
| 2026-05-04 07:19 | 47.88776 | 157.83843 | 28874 ft | 594 kts | 45° |
| 2026-05-04 07:20 | 47.93869 | 157.93462 | 28875 ft | 596 kts | 45° |
| 2026-05-04 07:20 | 47.99010 | 158.03212 | 28873 ft | 594 kts | 45° |
| 2026-05-04 07:22 | 48.19333 | 158.42093 | 28886 ft | 592 kts | 44° |
| 2026-05-04 07:23 | 48.24376 | 158.51828 | 28887 ft | 591 kts | 45° |
| 2026-05-04 07:23 | 48.29396 | 158.61551 | 28882 ft | 592 kts | 44° |
| 2026-05-04 07:24 | 48.34425 | 158.71332 | 28874 ft | 591 kts | 45° |
| 2026-05-04 07:24 | 48.39437 | 158.81113 | 28867 ft | 590 kts | 45° |
| 2026-05-04 07:26 | 48.59381 | 159.20386 | 28868 ft | 590 kts | 45° |
| 2026-05-04 07:27 | 48.64348 | 159.30255 | 28874 ft | 588 kts | 45° |
| 2026-05-04 07:27 | 48.69302 | 159.40138 | 28865 ft | 587 kts | 45° |
| 2026-05-04 07:28 | 48.74196 | 159.49934 | 28873 ft | 587 kts | 44° |
| 2026-05-04 07:28 | 48.79102 | 159.59798 | 28864 ft | 582 kts | 45° |
| 2026-05-04 07:29 | 48.84011 | 159.69691 | 28855 ft | 588 kts | 45° |
| 2026-05-04 07:29 | 48.88897 | 159.79581 | 28858 ft | 585 kts | 45° |
| 2026-05-04 07:30 | 48.93789 | 159.89514 | 28851 ft | 589 kts | 45° |
| 2026-05-04 07:30 | 48.98665 | 159.99469 | 28848 ft | 585 kts | 45° |
| 2026-05-04 07:31 | 49.03418 | 160.09532 | 28850 ft | 585 kts | 46° |
| 2026-05-04 07:33 | 49.22197 | 160.49927 | 28868 ft | 579 kts | 45° |
| 2026-05-04 07:33 | 49.26855 | 160.60034 | 28873 ft | 584 kts | 45° |
| 2026-05-04 07:34 | 49.31481 | 160.70120 | 28841 ft | 583 kts | 46° |
| 2026-05-04 07:34 | 49.36137 | 160.80309 | 28839 ft | 582 kts | 46° |
| 2026-05-04 07:35 | 49.40785 | 160.90515 | 28840 ft | 584 kts | 46° |
| 2026-05-04 07:35 | 49.45393 | 161.00687 | 28838 ft | 576 kts | 46° |
| 2026-05-04 07:36 | 49.49995 | 161.10867 | 28857 ft | 579 kts | 46° |
| 2026-05-04 07:38 | 49.68153 | 161.51811 | 28849 ft | 571 kts | 45° |
| 2026-05-04 07:38 | 49.72608 | 161.61948 | 28847 ft | 579 kts | 45° |
| 2026-05-04 07:39 | 49.77094 | 161.72209 | 28821 ft | 572 kts | 46° |
| 2026-05-04 07:39 | 49.81560 | 161.82459 | 28829 ft | 570 kts | 46° |
| 2026-05-04 07:40 | 49.85983 | 161.92648 | 28832 ft | 574 kts | 46° |
| 2026-05-04 07:40 | 49.90447 | 162.02969 | 28831 ft | 573 kts | 46° |
| 2026-05-04 07:41 | 49.94857 | 162.13222 | 28832 ft | 570 kts | 46° |
| 2026-05-04 07:41 | 49.99264 | 162.23491 | 28824 ft | 567 kts | 46° |
| 2026-05-04 07:42 | 50.03617 | 162.33681 | 28807 ft | 564 kts | 46° |
| 2026-05-04 07:42 | 50.07938 | 162.43829 | 28817 ft | 563 kts | 46° |
| 2026-05-04 07:43 | 50.12257 | 162.54009 | 28828 ft | 561 kts | 47° |
| 2026-05-04 07:43 | 50.16535 | 162.64140 | 28826 ft | 557 kts | 46° |
| 2026-05-04 07:44 | 50.20768 | 162.74200 | 28791 ft | 555 kts | 47° |
| 2026-05-04 07:44 | 50.24982 | 162.84245 | 28830 ft | 555 kts | 48° |
| 2026-05-04 07:45 | 50.29143 | 162.94223 | 28801 ft | 543 kts | 48° |
| 2026-05-04 07:45 | 50.33311 | 163.04230 | 28843 ft | 547 kts | 49° |
| 2026-05-04 07:46 | 50.37407 | 163.14125 | 28807 ft | 538 kts | 49° |
| 2026-05-04 07:46 | 50.41474 | 163.23965 | 28822 ft | 538 kts | 49° |
| 2026-05-04 07:47 | 50.45517 | 163.33792 | 28817 ft | 539 kts | 49° |
| 2026-05-04 07:49 | 50.61458 | 163.72911 | 28788 ft | 524 kts | 51° |
| 2026-05-04 07:49 | 50.65372 | 163.82602 | 28826 ft | 522 kts | 52° |
| 2026-05-04 07:50 | 50.69214 | 163.92160 | 28809 ft | 517 kts | 52° |
| 2026-05-04 07:50 | 50.73061 | 164.01758 | 28813 ft | 515 kts | 52° |
| 2026-05-04 07:51 | 50.76867 | 164.11287 | 28797 ft | 512 kts | 52° |
| 2026-05-04 07:51 | 50.80673 | 164.20851 | 28803 ft | 511 kts | 53° |
| 2026-05-04 07:52 | 50.84396 | 164.30249 | 28803 ft | 506 kts | 52° |
| 2026-05-04 07:52 | 50.88153 | 164.39761 | 28805 ft | 508 kts | 52° |
| 2026-05-04 07:54 | 51.02935 | 164.77280 | 28790 ft | 495 kts | 54° |
| 2026-05-04 07:55 | 51.06543 | 164.86508 | 28787 ft | 494 kts | 54° |
| 2026-05-04 07:55 | 51.10145 | 164.95760 | 28787 ft | 490 kts | 54° |
| 2026-05-04 07:56 | 51.13715 | 165.04961 | 28788 ft | 488 kts | 54° |
| 2026-05-04 07:56 | 51.17274 | 165.14162 | 28786 ft | 488 kts | 54° |
| 2026-05-04 07:57 | 51.20817 | 165.23358 | 28795 ft | 486 kts | 54° |
| 2026-05-04 07:57 | 51.24353 | 165.32568 | 28785 ft | 482 kts | 55° |
| 2026-05-04 07:58 | 51.27845 | 165.41698 | 28789 ft | 480 kts | 54° |
| 2026-05-04 07:58 | 51.31301 | 165.50764 | 28791 ft | 480 kts | 55° |
| 2026-05-04 07:59 | 51.34764 | 165.59882 | 28789 ft | 476 kts | 54° |
| 2026-05-04 07:59 | 51.38204 | 165.68941 | 28789 ft | 477 kts | 56° |
| 2026-05-04 08:00 | 51.41651 | 165.78020 | 28782 ft | 475 kts | 55° |
| 2026-05-04 08:02 | 51.55221 | 166.14092 | 28781 ft | 469 kts | 56° |
| 2026-05-04 08:02 | 51.58573 | 166.23080 | 28789 ft | 470 kts | 56° |
| 2026-05-04 08:03 | 51.61917 | 166.32082 | 28781 ft | 468 kts | 56° |
| 2026-05-04 08:03 | 51.65260 | 166.41110 | 28802 ft | 468 kts | 56° |
| 2026-05-04 08:04 | 51.68588 | 166.50133 | 28783 ft | 466 kts | 56° |
| 2026-05-04 08:04 | 51.71894 | 166.59125 | 28787 ft | 466 kts | 56° |
| 2026-05-04 08:05 | 51.75195 | 166.68137 | 28804 ft | 465 kts | 57° |
| 2026-05-04 08:05 | 51.78481 | 166.77139 | 28802 ft | 466 kts | 57° |
| 2026-05-04 08:06 | 51.81755 | 166.86140 | 28779 ft | 464 kts | 56° |
| 2026-05-04 08:06 | 51.84996 | 166.95085 | 28796 ft | 462 kts | 57° |
| 2026-05-04 08:08 | 51.97895 | 167.30989 | 28769 ft | 459 kts | 57° |
| 2026-05-04 08:11 | 52.12197 | 167.71410 | 28794 ft | 458 kts | 58° |
| 2026-05-04 08:11 | 52.16909 | 167.84872 | 28790 ft | 456 kts | 58° |
| 2026-05-04 08:12 | 52.20044 | 167.93866 | 28783 ft | 456 kts | 58° |
| 2026-05-04 08:12 | 52.23170 | 168.02867 | 28779 ft | 458 kts | 58° |
| 2026-05-04 08:13 | 52.26299 | 168.11912 | 28780 ft | 457 kts | 58° |
| 2026-05-04 08:13 | 52.29414 | 168.20947 | 28786 ft | 455 kts | 58° |
| 2026-05-04 08:14 | 52.32520 | 168.29990 | 28785 ft | 455 kts | 58° |
| 2026-05-04 08:16 | 52.44841 | 168.66188 | 28789 ft | 455 kts | 59° |
| 2026-05-04 08:16 | 52.47899 | 168.75255 | 28796 ft | 453 kts | 59° |
| 2026-05-04 08:17 | 52.50953 | 168.84341 | 28797 ft | 452 kts | 59° |
| 2026-05-04 08:17 | 52.53971 | 168.93355 | 28803 ft | 453 kts | 59° |
| 2026-05-04 08:19 | 52.66044 | 169.29744 | 28800 ft | 451 kts | 59° |
| 2026-05-04 08:20 | 52.69012 | 169.38771 | 28798 ft | 450 kts | 59° |
| 2026-05-04 08:20 | 52.71995 | 169.47879 | 28792 ft | 451 kts | 59° |
| 2026-05-04 08:21 | 52.74973 | 169.57005 | 28803 ft | 450 kts | 59° |
| 2026-05-04 08:21 | 52.77940 | 169.66133 | 28801 ft | 450 kts | 60° |
| 2026-05-04 08:22 | 52.80870 | 169.75180 | 28806 ft | 448 kts | 60° |
| 2026-05-04 08:24 | 52.92570 | 170.11638 | 28810 ft | 447 kts | 61° |
| 2026-05-04 08:24 | 52.94816 | 170.21214 | 28824 ft | 449 kts | 69° |
| 2026-05-04 08:25 | 52.96747 | 170.31100 | 28818 ft | 450 kts | 70° |
| 2026-05-04 08:25 | 52.98646 | 170.40976 | 28821 ft | 448 kts | 70° |
| 2026-05-04 08:27 | 53.06078 | 170.80392 | 28826 ft | 447 kts | 71° |
| 2026-05-04 08:28 | 53.07912 | 170.90268 | 28824 ft | 446 kts | 71° |
| 2026-05-04 08:28 | 53.09723 | 171.00072 | 28834 ft | 446 kts | 71° |
| 2026-05-04 08:29 | 53.11539 | 171.09955 | 28848 ft | 446 kts | 71° |
| 2026-05-04 08:31 | 53.18713 | 171.49541 | 28834 ft | 448 kts | 72° |
| 2026-05-04 08:33 | 53.25749 | 171.89218 | 28852 ft | 447 kts | 73° |
| 2026-05-04 08:35 | 53.32654 | 172.29033 | 28862 ft | 447 kts | 73° |
| 2026-05-04 08:35 | 53.34364 | 172.39037 | 28860 ft | 445 kts | 73° |
| 2026-05-04 08:37 | 53.40260 | 172.73962 | 28869 ft | 445 kts | 74° |
| 2026-05-04 08:38 | 53.41929 | 172.83977 | 28873 ft | 446 kts | 74° |
| 2026-05-04 08:38 | 53.43577 | 172.93927 | 28861 ft | 445 kts | 74° |
| 2026-05-04 08:40 | 53.50109 | 173.33937 | 28881 ft | 444 kts | 74° |
| 2026-05-04 08:41 | 53.51727 | 173.43991 | 28880 ft | 445 kts | 74° |
| 2026-05-04 08:41 | 53.53331 | 173.54021 | 28875 ft | 444 kts | 75° |
| 2026-05-04 08:42 | 53.54983 | 173.63992 | 28890 ft | 446 kts | 73° |
| 2026-05-04 08:42 | 53.56659 | 173.74008 | 28901 ft | 445 kts | 74° |
| 2026-05-04 08:43 | 53.58328 | 173.84056 | 28899 ft | 445 kts | 75° |
| 2026-05-04 08:43 | 53.59993 | 173.94145 | 28896 ft | 446 kts | 75° |
| 2026-05-04 08:44 | 53.61633 | 174.04155 | 28899 ft | 447 kts | 75° |
| 2026-05-04 08:46 | 53.68164 | 174.44612 | 28899 ft | 447 kts | 75° |
| 2026-05-04 08:46 | 53.69773 | 174.54729 | 28900 ft | 448 kts | 75° |
| 2026-05-04 08:47 | 53.71380 | 174.64900 | 28913 ft | 449 kts | 75° |
| 2026-05-04 08:47 | 53.72984 | 174.75113 | 28928 ft | 449 kts | 76° |
| 2026-05-04 08:48 | 53.74580 | 174.85344 | 28933 ft | 450 kts | 76° |
| 2026-05-04 08:48 | 53.76160 | 174.95525 | 28922 ft | 450 kts | 76° |
| 2026-05-04 08:49 | 53.77739 | 175.05772 | 28930 ft | 451 kts | 76° |
| 2026-05-04 08:50 | 53.83224 | 175.41866 | 28930 ft | 453 kts | 77° |
| 2026-05-04 08:51 | 53.84768 | 175.52176 | 28946 ft | 455 kts | 77° |
| 2026-05-04 08:51 | 53.86321 | 175.62608 | 28943 ft | 454 kts | 77° |
| 2026-05-04 08:52 | 53.87860 | 175.73018 | 28965 ft | 456 kts | 77° |
| 2026-05-04 08:52 | 53.89383 | 175.83391 | 28956 ft | 455 kts | 78° |
| 2026-05-04 08:54 | 53.95430 | 176.25262 | 28963 ft | 458 kts | 77° |
| 2026-05-04 08:55 | 53.96932 | 176.35840 | 28972 ft | 460 kts | 78° |
| 2026-05-04 08:55 | 53.98419 | 176.46385 | 28974 ft | 460 kts | 78° |
| 2026-05-04 09:01 | 54.13578 | 177.58362 | 28992 ft | 465 kts | 78° |
| 2026-05-04 09:01 | 54.14977 | 177.69148 | 28993 ft | 465 kts | 79° |
| 2026-05-04 09:02 | 54.16360 | 177.79884 | 28995 ft | 464 kts | 79° |
| 2026-05-04 09:02 | 54.17739 | 177.90674 | 29004 ft | 465 kts | 79° |
| 2026-05-04 09:03 | 54.19103 | 178.01428 | 29016 ft | 466 kts | 79° |
| 2026-05-04 09:03 | 54.20468 | 178.12282 | 29014 ft | 466 kts | 79° |
| 2026-05-04 09:04 | 54.21825 | 178.23143 | 29039 ft | 467 kts | 79° |
| 2026-05-04 09:04 | 54.23178 | 178.33948 | 29036 ft | 467 kts | 78° |
| 2026-05-04 09:05 | 54.24612 | 178.44795 | 29037 ft | 467 kts | 78° |
| 2026-05-04 09:05 | 54.26034 | 178.55635 | 29035 ft | 467 kts | 78° |
| 2026-05-04 09:06 | 54.27440 | 178.66455 | 29036 ft | 468 kts | 78° |
| 2026-05-04 09:08 | 54.32975 | 179.09938 | 29036 ft | 469 kts | 78° |
| 2026-05-04 09:08 | 54.34338 | 179.20863 | 29039 ft | 469 kts | 78° |
| 2026-05-04 09:09 | 54.35694 | 179.31816 | 29046 ft | 469 kts | 78° |
| 2026-05-04 09:09 | 54.37034 | 179.42731 | 29046 ft | 470 kts | 78° |
| 2026-05-04 09:10 | 54.38376 | 179.53744 | 29045 ft | 470 kts | 78° |
| 2026-05-04 09:10 | 54.39697 | 179.64677 | 29055 ft | 470 kts | 78° |
| 2026-05-04 09:11 | 54.41022 | 179.75740 | 29056 ft | 472 kts | 79° |
| 2026-05-04 09:11 | 54.42328 | 179.86729 | 29063 ft | 472 kts | 79° |
| 2026-05-04 09:12 | 54.43645 | 179.97897 | 29061 ft | 472 kts | 79° |
| 2026-05-04 09:14 | 54.48755 | -179.57812 | 29067 ft | 474 kts | 78° |
| 2026-05-04 09:14 | 54.50016 | -179.46649 | 29069 ft | 474 kts | 79° |
| 2026-05-04 09:15 | 54.51257 | -179.35553 | 29079 ft | 475 kts | 79° |
| 2026-05-04 09:15 | 54.52499 | -179.24358 | 29080 ft | 475 kts | 79° |
| 2026-05-04 09:17 | 54.57954 | -178.73958 | 29085 ft | 477 kts | 79° |
| 2026-05-04 09:18 | 54.59136 | -178.62752 | 29098 ft | 477 kts | 79° |
| 2026-05-04 09:18 | 54.60316 | -178.51466 | 29098 ft | 477 kts | 79° |
| 2026-05-04 09:19 | 54.61481 | -178.40210 | 29100 ft | 477 kts | 80° |
| 2026-05-04 09:19 | 54.62638 | -178.28934 | 29101 ft | 478 kts | 79° |
| 2026-05-04 09:20 | 54.63787 | -178.17618 | 29104 ft | 479 kts | 79° |
| 2026-05-04 09:20 | 54.64931 | -178.06352 | 29112 ft | 479 kts | 79° |
| 2026-05-04 09:21 | 54.66101 | -177.95001 | 29103 ft | 478 kts | 79° |
| 2026-05-04 09:21 | 54.67255 | -177.83690 | 29111 ft | 479 kts | 79° |
| 2026-05-04 09:22 | 54.68399 | -177.72357 | 29107 ft | 479 kts | 79° |
| 2026-05-04 09:22 | 54.69527 | -177.61069 | 29118 ft | 480 kts | 79° |
| 2026-05-04 09:23 | 54.70649 | -177.49725 | 29108 ft | 479 kts | 79° |
| 2026-05-04 09:23 | 54.71765 | -177.38329 | 29119 ft | 480 kts | 79° |
| 2026-05-04 09:25 | 54.75597 | -176.98274 | 29984 ft | 488 kts | 79° |
| 2026-05-04 09:25 | 54.76143 | -176.92445 | 30724 ft | 483 kts | 79° |
| 2026-05-04 09:26 | 54.76674 | -176.86743 | 31090 ft | 485 kts | 79° |
| 2026-05-04 09:26 | 54.77206 | -176.81004 | 31120 ft | 485 kts | 79° |
| 2026-05-04 09:26 | 54.78264 | -176.69495 | 31119 ft | 482 kts | 79° |
| 2026-05-04 09:27 | 54.79317 | -176.57924 | 31121 ft | 483 kts | 79° |
| 2026-05-04 09:27 | 54.80351 | -176.46420 | 31117 ft | 483 kts | 79° |
| 2026-05-04 09:28 | 54.81383 | -176.34816 | 31119 ft | 483 kts | 80° |
| 2026-05-04 09:28 | 54.82402 | -176.23233 | 31125 ft | 486 kts | 80° |
| 2026-05-04 09:29 | 54.83408 | -176.11673 | 31122 ft | 485 kts | 80° |
| 2026-05-04 09:29 | 54.84400 | -176.00130 | 31124 ft | 486 kts | 80° |
| 2026-05-04 09:30 | 54.85391 | -175.88467 | 31127 ft | 487 kts | 80° |
| 2026-05-04 09:30 | 54.86367 | -175.76845 | 31129 ft | 487 kts | 80° |
| 2026-05-04 09:31 | 54.87337 | -175.65150 | 31131 ft | 488 kts | 80° |
| 2026-05-04 09:31 | 54.88299 | -175.53418 | 31133 ft | 489 kts | 79° |
| 2026-05-04 09:32 | 54.89247 | -175.41701 | 31128 ft | 489 kts | 79° |
| 2026-05-04 09:34 | 54.92931 | -174.94768 | 31135 ft | 494 kts | 80° |
| 2026-05-04 09:34 | 54.93831 | -174.82915 | 31131 ft | 493 kts | 80° |
| 2026-05-04 09:35 | 54.94720 | -174.71060 | 31140 ft | 494 kts | 80° |
| 2026-05-04 09:35 | 54.95593 | -174.59258 | 31137 ft | 494 kts | 80° |
| 2026-05-04 09:37 | 54.98994 | -174.11647 | 31152 ft | 498 kts | 81° |
| 2026-05-04 09:38 | 54.99821 | -173.99646 | 31153 ft | 497 kts | 80° |
| 2026-05-04 09:38 | 55.00629 | -173.87744 | 31150 ft | 498 kts | 80° |
| 2026-05-04 09:39 | 55.01432 | -173.75749 | 31146 ft | 498 kts | 80° |
| 2026-05-04 09:39 | 55.02218 | -173.63821 | 31140 ft | 498 kts | 80° |
| 2026-05-04 09:40 | 55.02999 | -173.51782 | 31140 ft | 499 kts | 80° |
| 2026-05-04 09:40 | 55.03766 | -173.39793 | 31144 ft | 499 kts | 80° |
| 2026-05-04 09:42 | 55.06726 | -172.91540 | 31151 ft | 501 kts | 80° |
| 2026-05-04 09:43 | 55.07435 | -172.79489 | 31144 ft | 502 kts | 80° |
| 2026-05-04 09:43 | 55.08139 | -172.67325 | 31138 ft | 502 kts | 80° |
| 2026-05-04 09:44 | 55.08824 | -172.55264 | 31133 ft | 503 kts | 80° |
| 2026-05-04 09:46 | 55.11465 | -172.06599 | 31145 ft | 504 kts | 81° |
| 2026-05-04 09:46 | 55.12094 | -171.94443 | 31143 ft | 505 kts | 81° |
| 2026-05-04 09:47 | 55.12716 | -171.82188 | 31141 ft | 504 kts | 81° |
| 2026-05-04 09:49 | 55.15067 | -171.33398 | 31131 ft | 504 kts | 81° |
| 2026-05-04 09:51 | 55.16969 | -170.90562 | 31121 ft | 506 kts | 81° |
| 2026-05-04 09:51 | 55.17512 | -170.78302 | 31125 ft | 504 kts | 81° |
| 2026-05-04 09:52 | 55.18050 | -170.66034 | 31122 ft | 504 kts | 81° |
| 2026-05-04 09:52 | 55.18572 | -170.53868 | 31131 ft | 505 kts | 81° |
| 2026-05-04 09:53 | 55.19087 | -170.41571 | 31127 ft | 506 kts | 81° |
| 2026-05-04 09:53 | 55.19587 | -170.29306 | 31128 ft | 505 kts | 81° |
| 2026-05-04 09:54 | 55.20078 | -170.16992 | 31123 ft | 506 kts | 81° |
| 2026-05-04 09:54 | 55.20551 | -170.04788 | 31121 ft | 504 kts | 81° |
| 2026-05-04 09:55 | 55.21015 | -169.92516 | 31120 ft | 504 kts | 81° |
| 2026-05-04 09:55 | 55.21466 | -169.80257 | 31127 ft | 504 kts | 81° |
| 2026-05-04 09:56 | 55.21903 | -169.68041 | 31121 ft | 503 kts | 81° |
| 2026-05-04 09:56 | 55.22330 | -169.55786 | 31118 ft | 504 kts | 81° |
| 2026-05-04 09:57 | 55.22742 | -169.43570 | 31120 ft | 504 kts | 81° |
| 2026-05-04 09:57 | 55.23145 | -169.31280 | 31113 ft | 505 kts | 82° |
| 2026-05-04 09:58 | 55.23535 | -169.19002 | 31103 ft | 506 kts | 82° |
| 2026-05-04 09:58 | 55.23914 | -169.06656 | 31102 ft | 504 kts | 82° |
| 2026-05-04 10:00 | 55.25294 | -168.57753 | 31102 ft | 501 kts | 82° |
| 2026-05-04 10:04 | 55.27227 | -167.72734 | 31087 ft | 495 kts | 84° |
| 2026-05-04 10:04 | 55.27452 | -167.60721 | 31073 ft | 494 kts | 85° |
| 2026-05-04 10:05 | 55.27667 | -167.48665 | 31075 ft | 493 kts | 85° |
| 2026-05-04 10:05 | 55.27868 | -167.36642 | 31053 ft | 493 kts | 85° |
| 2026-05-04 10:06 | 55.28057 | -167.24699 | 31074 ft | 492 kts | 86° |
| 2026-05-04 10:06 | 55.28236 | -167.12671 | 31062 ft | 492 kts | 87° |
| 2026-05-04 10:08 | 55.28763 | -166.70856 | 31055 ft | 488 kts | 87° |
| 2026-05-04 10:08 | 55.28887 | -166.58933 | 31052 ft | 484 kts | 88° |
| 2026-05-04 10:09 | 55.28998 | -166.47205 | 31047 ft | 482 kts | 88° |
| 2026-05-04 10:09 | 55.29098 | -166.35425 | 31034 ft | 482 kts | 89° |
| 2026-05-04 10:10 | 55.29187 | -166.23634 | 31040 ft | 486 kts | 90° |
| 2026-05-04 10:10 | 55.29265 | -166.11800 | 31034 ft | 487 kts | 90° |
| 2026-05-04 10:11 | 55.29331 | -165.99890 | 31030 ft | 487 kts | 90° |
| 2026-05-04 10:11 | 55.29386 | -165.87984 | 31032 ft | 486 kts | 90° |
| 2026-05-04 10:12 | 55.29430 | -165.76204 | 31030 ft | 485 kts | 91° |
| 2026-05-04 10:12 | 55.29462 | -165.64374 | 31021 ft | 483 kts | 91° |
| 2026-05-04 10:13 | 55.29482 | -165.52644 | 31018 ft | 482 kts | 91° |
| 2026-05-04 10:13 | 55.29491 | -165.40863 | 31021 ft | 481 kts | 92° |
| 2026-05-04 10:14 | 55.29489 | -165.29112 | 31016 ft | 481 kts | 93° |
| 2026-05-04 10:16 | 55.29367 | -164.82321 | 30989 ft | 479 kts | 94° |
| 2026-05-04 10:16 | 55.29310 | -164.70679 | 30983 ft | 479 kts | 95° |
| 2026-05-04 10:17 | 55.29241 | -164.58989 | 30980 ft | 477 kts | 95° |
| 2026-05-04 10:19 | 55.28856 | -164.12604 | 30979 ft | 472 kts | 96° |
| 2026-05-04 10:19 | 55.28733 | -164.01097 | 30981 ft | 473 kts | 97° |
| 2026-05-04 10:20 | 55.28599 | -163.89551 | 30974 ft | 471 kts | 97° |
| 2026-05-04 10:20 | 55.28455 | -163.78070 | 30964 ft | 468 kts | 96° |
| 2026-05-04 10:21 | 55.28301 | -163.66682 | 30959 ft | 470 kts | 96° |
| 2026-05-04 10:21 | 55.28135 | -163.55142 | 30954 ft | 470 kts | 96° |
| 2026-05-04 10:22 | 55.27869 | -163.38071 | 30936 ft | 467 kts | 97° |
| 2026-05-04 10:23 | 55.27677 | -163.26625 | 30944 ft | 467 kts | 98° |
| 2026-05-04 10:25 | 55.26803 | -162.81097 | 30917 ft | 465 kts | 99° |
| 2026-05-04 10:25 | 55.26023 | -162.69942 | 30911 ft | 461 kts | 103° |
| 2026-05-04 10:26 | 55.25105 | -162.58781 | 30906 ft | 459 kts | 103° |
| 2026-05-04 10:26 | 55.24167 | -162.47725 | 30904 ft | 459 kts | 103° |
| 2026-05-04 10:27 | 55.23206 | -162.36627 | 30860 ft | 460 kts | 103° |
| 2026-05-04 10:27 | 55.22237 | -162.25604 | 30843 ft | 460 kts | 104° |
| 2026-05-04 10:28 | 55.21255 | -162.14583 | 30826 ft | 459 kts | 104° |
| 2026-05-04 10:28 | 55.20256 | -162.03491 | 30845 ft | 459 kts | 104° |
| 2026-05-04 10:29 | 55.19253 | -161.92503 | 30859 ft | 459 kts | 104° |
| 2026-05-04 10:29 | 55.18234 | -161.81433 | 30852 ft | 459 kts | 104° |
| 2026-05-04 10:30 | 55.17212 | -161.70454 | 30856 ft | 458 kts | 104° |
| 2026-05-04 10:30 | 55.16177 | -161.59453 | 30846 ft | 457 kts | 104° |
| 2026-05-04 10:31 | 55.15137 | -161.48508 | 30831 ft | 457 kts | 103° |
| 2026-05-04 10:32 | 55.11407 | -161.10098 | 30824 ft | 456 kts | 104° |
| 2026-05-04 10:33 | 55.10318 | -160.99138 | 30807 ft | 458 kts | 104° |
| 2026-05-04 10:33 | 55.09221 | -160.88197 | 30810 ft | 459 kts | 104° |
| 2026-05-04 10:34 | 55.08110 | -160.77219 | 30806 ft | 460 kts | 103° |
| 2026-05-04 10:34 | 55.06987 | -160.66220 | 30792 ft | 460 kts | 103° |
| 2026-05-04 10:35 | 55.05863 | -160.55312 | 30790 ft | 457 kts | 103° |
| 2026-05-04 10:35 | 55.04727 | -160.44395 | 30797 ft | 458 kts | 103° |
| 2026-05-04 10:36 | 55.03572 | -160.33403 | 30792 ft | 459 kts | 104° |
| 2026-05-04 10:36 | 55.02409 | -160.22430 | 30790 ft | 460 kts | 104° |
| 2026-05-04 10:37 | 55.01243 | -160.11523 | 30786 ft | 460 kts | 103° |
| 2026-05-04 10:37 | 55.00064 | -160.00591 | 30780 ft | 460 kts | 104° |
| 2026-05-04 10:39 | 54.97734 | -159.61723 | 30760 ft | 461 kts | 98° |
| 2026-05-04 10:40 | 54.97075 | -159.50661 | 30752 ft | 460 kts | 98° |
| 2026-05-04 10:40 | 54.96401 | -159.39615 | 30734 ft | 460 kts | 98° |
| 2026-05-04 10:41 | 54.95711 | -159.28528 | 30720 ft | 458 kts | 99° |
| 2026-05-04 10:41 | 54.95017 | -159.17566 | 30723 ft | 458 kts | 98° |
| 2026-05-04 10:42 | 54.94307 | -159.06508 | 30712 ft | 458 kts | 98° |
| 2026-05-04 10:42 | 54.93591 | -158.95538 | 30722 ft | 459 kts | 98° |
| 2026-05-04 10:43 | 54.92859 | -158.84477 | 30706 ft | 458 kts | 98° |
| 2026-05-04 10:45 | 54.89852 | -158.40593 | 30706 ft | 459 kts | 98° |
| 2026-05-04 10:45 | 54.89078 | -158.29654 | 30698 ft | 457 kts | 99° |
| 2026-05-04 10:46 | 54.88290 | -158.18677 | 30706 ft | 456 kts | 99° |
| 2026-05-04 10:46 | 54.87494 | -158.07724 | 30693 ft | 455 kts | 99° |
| 2026-05-04 10:47 | 54.86694 | -157.96860 | 30688 ft | 455 kts | 99° |
| 2026-05-04 10:47 | 54.85883 | -157.85977 | 30690 ft | 456 kts | 99° |
| 2026-05-04 10:49 | 54.82551 | -157.42619 | 30674 ft | 451 kts | 99° |
| 2026-05-04 10:50 | 54.81701 | -157.31873 | 30667 ft | 451 kts | 101° |
| 2026-05-04 10:52 | 54.78214 | -156.89062 | 30670 ft | 447 kts | 101° |
| 2026-05-04 10:52 | 54.77314 | -156.78311 | 30667 ft | 445 kts | 101° |
| 2026-05-04 10:54 | 54.73677 | -156.36028 | 30668 ft | 443 kts | 102° |
| 2026-05-04 10:56 | 54.69920 | -155.94104 | 30689 ft | 441 kts | 103° |
| 2026-05-04 10:57 | 54.68957 | -155.83626 | 30665 ft | 439 kts | 103° |
| 2026-05-04 10:57 | 54.67999 | -155.73285 | 30661 ft | 435 kts | 103° |
| 2026-05-04 10:58 | 54.67020 | -155.62846 | 30633 ft | 436 kts | 103° |
| 2026-05-04 10:58 | 54.66053 | -155.52622 | 30668 ft | 434 kts | 103° |
| 2026-05-04 10:59 | 54.65068 | -155.42311 | 30642 ft | 434 kts | 103° |
| 2026-05-04 10:59 | 54.64078 | -155.32028 | 30672 ft | 430 kts | 104° |
| 2026-05-04 11:00 | 54.63089 | -155.21863 | 30671 ft | 431 kts | 105° |
| 2026-05-04 11:02 | 54.59055 | -154.81314 | 30659 ft | 426 kts | 105° |
| 2026-05-04 11:05 | 54.51248 | -154.06618 | 30681 ft | 421 kts | 107° |
| 2026-05-04 11:06 | 54.50178 | -153.96733 | 30694 ft | 422 kts | 107° |
| 2026-05-04 11:06 | 54.49103 | -153.86882 | 30688 ft | 420 kts | 107° |
| 2026-05-04 11:10 | 54.41366 | -153.18162 | 30703 ft | 417 kts | 109° |
| 2026-05-04 11:12 | 54.36801 | -152.79265 | 30701 ft | 413 kts | 109° |
| 2026-05-04 11:12 | 54.35639 | -152.69559 | 30699 ft | 418 kts | 110° |
| 2026-05-04 11:13 | 54.34479 | -152.59912 | 30701 ft | 415 kts | 109° |
| 2026-05-04 11:13 | 54.33304 | -152.50232 | 30700 ft | 416 kts | 110° |
| 2026-05-04 11:14 | 54.32125 | -152.40569 | 30694 ft | 411 kts | 110° |
| 2026-05-04 11:16 | 54.27367 | -152.02301 | 30700 ft | 410 kts | 112° |
| 2026-05-04 11:16 | 54.26160 | -151.92750 | 30697 ft | 408 kts | 111° |
| 2026-05-04 11:17 | 54.24945 | -151.83231 | 30715 ft | 412 kts | 112° |
| 2026-05-04 11:19 | 54.20008 | -151.45108 | 30717 ft | 415 kts | 112° |
| 2026-05-04 11:19 | 54.18755 | -151.35565 | 30714 ft | 408 kts | 112° |
| 2026-05-04 11:20 | 54.17501 | -151.26119 | 30727 ft | 411 kts | 113° |
| 2026-05-04 11:20 | 54.16227 | -151.16568 | 30721 ft | 410 kts | 113° |
| 2026-05-04 11:22 | 54.11075 | -150.78572 | 30733 ft | 414 kts | 113° |
| 2026-05-04 11:23 | 54.09756 | -150.69003 | 30736 ft | 414 kts | 113° |
| 2026-05-04 11:25 | 54.05102 | -150.35689 | 30750 ft | 412 kts | 114° |
| 2026-05-04 11:25 | 54.03749 | -150.26160 | 30771 ft | 416 kts | 114° |
| 2026-05-04 11:27 | 53.98860 | -149.82399 | 30763 ft | 429 kts | 106° |
| 2026-05-04 11:28 | 53.98332 | -149.72252 | 30760 ft | 432 kts | 107° |
| 2026-05-04 11:28 | 53.97759 | -149.62054 | 30773 ft | 432 kts | 107° |
| 2026-05-04 11:29 | 53.97161 | -149.51862 | 30776 ft | 436 kts | 107° |
| 2026-05-04 11:29 | 53.96556 | -149.41766 | 30773 ft | 431 kts | 108° |
| 2026-05-04 11:33 | 53.91938 | -148.70119 | 30820 ft | 440 kts | 108° |
| 2026-05-04 11:33 | 53.91235 | -148.59781 | 30818 ft | 443 kts | 108° |
| 2026-05-04 11:34 | 53.90516 | -148.49362 | 30821 ft | 444 kts | 108° |
| 2026-05-04 11:34 | 53.89798 | -148.39043 | 30849 ft | 441 kts | 108° |
| 2026-05-04 11:35 | 53.89061 | -148.28628 | 30861 ft | 442 kts | 109° |
| 2026-05-04 11:35 | 53.88317 | -148.18260 | 30865 ft | 448 kts | 109° |
| 2026-05-04 11:36 | 53.87563 | -148.07817 | 30870 ft | 445 kts | 109° |
| 2026-05-04 11:36 | 53.86796 | -147.97366 | 30872 ft | 445 kts | 109° |
| 2026-05-04 11:37 | 53.86016 | -147.86887 | 30879 ft | 449 kts | 109° |
| 2026-05-04 11:37 | 53.85233 | -147.76450 | 30887 ft | 450 kts | 108° |
| 2026-05-04 11:38 | 53.84434 | -147.65938 | 30883 ft | 447 kts | 109° |
| 2026-05-04 11:38 | 53.83630 | -147.55508 | 30898 ft | 453 kts | 108° |
| 2026-05-04 11:39 | 53.82809 | -147.44966 | 30892 ft | 453 kts | 108° |
| 2026-05-04 11:41 | 53.79856 | -147.07996 | 30918 ft | 453 kts | 109° |
| 2026-05-04 11:41 | 53.78988 | -146.97400 | 30912 ft | 453 kts | 109° |
| 2026-05-04 11:42 | 53.78108 | -146.86793 | 30922 ft | 457 kts | 109° |
| 2026-05-04 11:42 | 53.77226 | -146.76236 | 30933 ft | 454 kts | 109° |
| 2026-05-04 11:43 | 53.76321 | -146.65599 | 30940 ft | 460 kts | 109° |
| 2026-05-04 11:43 | 53.75408 | -146.54912 | 30945 ft | 460 kts | 109° |
| 2026-05-04 11:44 | 53.74487 | -146.44255 | 30952 ft | 460 kts | 109° |
| 2026-05-04 11:44 | 53.73548 | -146.33536 | 30957 ft | 460 kts | 109° |
| 2026-05-04 11:45 | 53.72607 | -146.22871 | 30959 ft | 460 kts | 110° |
| 2026-05-04 11:45 | 53.71655 | -146.12222 | 30968 ft | 460 kts | 109° |
| 2026-05-04 11:46 | 53.70685 | -146.01497 | 30967 ft | 463 kts | 109° |
| 2026-05-04 11:46 | 53.69716 | -145.90851 | 30965 ft | 460 kts | 109° |
| 2026-05-04 11:47 | 53.68730 | -145.80144 | 30975 ft | 463 kts | 109° |
| 2026-05-04 11:47 | 53.67726 | -145.69365 | 30975 ft | 462 kts | 109° |
| 2026-05-04 11:48 | 53.66719 | -145.58658 | 30977 ft | 466 kts | 109° |
| 2026-05-04 11:48 | 53.65696 | -145.47873 | 30982 ft | 463 kts | 109° |
| 2026-05-04 11:49 | 53.64666 | -145.37143 | 30994 ft | 468 kts | 109° |
| 2026-05-04 11:49 | 53.63620 | -145.26335 | 30999 ft | 467 kts | 109° |
| 2026-05-04 11:50 | 53.62564 | -145.15543 | 31002 ft | 469 kts | 109° |
| 2026-05-04 11:50 | 53.61505 | -145.04808 | 31009 ft | 467 kts | 109° |
| 2026-05-04 11:51 | 53.60422 | -144.93947 | 31006 ft | 470 kts | 109° |
| 2026-05-04 11:51 | 53.59333 | -144.83122 | 31008 ft | 469 kts | 109° |
| 2026-05-04 11:52 | 53.58232 | -144.72279 | 31020 ft | 469 kts | 109° |
| 2026-05-04 11:52 | 53.57117 | -144.61410 | 31019 ft | 472 kts | 109° |
| 2026-05-04 11:53 | 53.55991 | -144.50537 | 31025 ft | 473 kts | 109° |
| 2026-05-04 11:53 | 53.54861 | -144.39714 | 31028 ft | 473 kts | 109° |
| 2026-05-04 11:55 | 53.50209 | -143.96182 | 31036 ft | 472 kts | 109° |
| 2026-05-04 11:56 | 53.49014 | -143.85259 | 31047 ft | 475 kts | 109° |
| 2026-05-04 11:56 | 53.47818 | -143.74406 | 31050 ft | 475 kts | 109° |
| 2026-05-04 11:57 | 53.46601 | -143.63478 | 31057 ft | 478 kts | 109° |
| 2026-05-04 11:57 | 53.45375 | -143.52541 | 31061 ft | 474 kts | 109° |
| 2026-05-04 11:58 | 53.44135 | -143.41594 | 31060 ft | 477 kts | 109° |
| 2026-05-04 11:58 | 53.42890 | -143.30687 | 31063 ft | 477 kts | 109° |
| 2026-05-04 11:59 | 53.41629 | -143.19731 | 31069 ft | 477 kts | 109° |
| 2026-05-04 11:59 | 53.40358 | -143.08787 | 31078 ft | 479 kts | 109° |
| 2026-05-04 12:00 | 53.39078 | -142.97862 | 31082 ft | 480 kts | 109° |
| 2026-05-04 12:00 | 53.37780 | -142.86879 | 31082 ft | 482 kts | 109° |
| 2026-05-04 12:01 | 53.36476 | -142.75932 | 31088 ft | 482 kts | 109° |
| 2026-05-04 12:02 | 53.31812 | -142.37480 | 31102 ft | 481 kts | 108° |
| 2026-05-04 12:03 | 53.30451 | -142.26471 | 31113 ft | 482 kts | 109° |
| 2026-05-04 12:03 | 53.29077 | -142.15442 | 31112 ft | 482 kts | 109° |
| 2026-05-04 12:04 | 53.27703 | -142.04507 | 31118 ft | 485 kts | 109° |
| 2026-05-04 12:04 | 53.26310 | -141.93494 | 31114 ft | 484 kts | 109° |
| 2026-05-04 12:05 | 53.24910 | -141.82521 | 31116 ft | 485 kts | 109° |
| 2026-05-04 12:05 | 53.23486 | -141.71454 | 31120 ft | 487 kts | 109° |
| 2026-05-04 12:06 | 53.22060 | -141.60445 | 31122 ft | 486 kts | 109° |
| 2026-05-04 12:06 | 53.20614 | -141.49376 | 31121 ft | 487 kts | 108° |
| 2026-05-04 12:07 | 53.19159 | -141.38321 | 31124 ft | 489 kts | 108° |
| 2026-05-04 12:07 | 53.17691 | -141.27246 | 31124 ft | 488 kts | 109° |
| 2026-05-04 12:08 | 53.16215 | -141.16203 | 31124 ft | 487 kts | 109° |
| 2026-05-04 12:08 | 53.14738 | -141.05237 | 31130 ft | 489 kts | 109° |
| 2026-05-04 12:09 | 53.13238 | -140.94182 | 31131 ft | 488 kts | 109° |
| 2026-05-04 12:09 | 53.11734 | -140.83179 | 31132 ft | 489 kts | 108° |
| 2026-05-04 12:10 | 53.10208 | -140.72098 | 31139 ft | 490 kts | 108° |
| 2026-05-04 12:10 | 53.08673 | -140.61037 | 31146 ft | 490 kts | 108° |
| 2026-05-04 12:11 | 53.07137 | -140.50044 | 31141 ft | 490 kts | 108° |
| 2026-05-04 12:11 | 53.05580 | -140.38992 | 31143 ft | 490 kts | 108° |
| 2026-05-04 12:12 | 53.04016 | -140.27959 | 31146 ft | 490 kts | 109° |
| 2026-05-04 12:12 | 53.02444 | -140.16957 | 31147 ft | 491 kts | 109° |
| 2026-05-04 12:14 | 52.94753 | -139.73566 | 31153 ft | 489 kts | 112° |
| 2026-05-04 12:15 | 52.92641 | -139.62935 | 31154 ft | 488 kts | 112° |
| 2026-05-04 12:15 | 52.90498 | -139.52228 | 31152 ft | 488 kts | 112° |
| 2026-05-04 12:16 | 52.88344 | -139.41538 | 31163 ft | 489 kts | 112° |
| 2026-05-04 12:16 | 52.86179 | -139.30859 | 31163 ft | 490 kts | 113° |
| 2026-05-04 12:17 | 52.83995 | -139.20146 | 31162 ft | 489 kts | 113° |
| 2026-05-04 12:17 | 52.81815 | -139.09517 | 31162 ft | 491 kts | 113° |
| 2026-05-04 12:18 | 52.79608 | -138.98810 | 31161 ft | 491 kts | 113° |
| 2026-05-04 12:18 | 52.77412 | -138.88209 | 31161 ft | 490 kts | 113° |
| 2026-05-04 12:19 | 52.75191 | -138.77551 | 31161 ft | 490 kts | 113° |
| 2026-05-04 12:19 | 52.72966 | -138.66928 | 31160 ft | 490 kts | 113° |
| 2026-05-04 12:20 | 52.70722 | -138.56274 | 31160 ft | 491 kts | 112° |
| 2026-05-04 12:20 | 52.68479 | -138.45683 | 31158 ft | 492 kts | 112° |
| 2026-05-04 12:21 | 52.66210 | -138.35022 | 31160 ft | 492 kts | 112° |
| 2026-05-04 12:21 | 52.63944 | -138.24426 | 31157 ft | 492 kts | 113° |
| 2026-05-04 12:22 | 52.61657 | -138.13796 | 31157 ft | 492 kts | 113° |
| 2026-05-04 12:22 | 52.59362 | -138.03175 | 31156 ft | 492 kts | 113° |
| 2026-05-04 12:23 | 52.57069 | -137.92625 | 31161 ft | 492 kts | 113° |
| 2026-05-04 12:23 | 52.54746 | -137.81988 | 31160 ft | 493 kts | 113° |
| 2026-05-04 12:24 | 52.52431 | -137.71445 | 31161 ft | 493 kts | 113° |
| 2026-05-04 12:24 | 52.50088 | -137.60825 | 31158 ft | 494 kts | 113° |
| 2026-05-04 12:25 | 52.47739 | -137.50233 | 31158 ft | 494 kts | 113° |
| 2026-05-04 12:25 | 52.45378 | -137.39642 | 31159 ft | 493 kts | 112° |
| 2026-05-04 12:26 | 52.43029 | -137.29156 | 31155 ft | 493 kts | 114° |
| 2026-05-04 12:26 | 52.40652 | -137.18604 | 31157 ft | 495 kts | 113° |
| 2026-05-04 12:27 | 52.38267 | -137.08064 | 31156 ft | 495 kts | 113° |
| 2026-05-04 12:27 | 52.35855 | -136.97461 | 31156 ft | 495 kts | 113° |
| 2026-05-04 12:28 | 52.33458 | -136.86974 | 31156 ft | 493 kts | 113° |
| 2026-05-04 12:28 | 52.31037 | -136.76436 | 31152 ft | 494 kts | 113° |
| 2026-05-04 12:29 | 52.28610 | -136.65922 | 31152 ft | 494 kts | 113° |
| 2026-05-04 12:29 | 52.26170 | -136.55406 | 31149 ft | 495 kts | 113° |
| 2026-05-04 12:30 | 52.23737 | -136.44971 | 31147 ft | 495 kts | 113° |
| 2026-05-04 12:30 | 52.21274 | -136.34459 | 31142 ft | 496 kts | 114° |
| 2026-05-04 12:31 | 52.18809 | -136.23990 | 31143 ft | 495 kts | 114° |
| 2026-05-04 12:31 | 52.16325 | -136.13487 | 31138 ft | 495 kts | 114° |
| 2026-05-04 12:32 | 52.12603 | -135.97850 | 31138 ft | 495 kts | 114° |
| 2026-05-04 12:33 | 52.10096 | -135.87384 | 31133 ft | 496 kts | 114° |
| 2026-05-04 12:33 | 52.07577 | -135.76912 | 31132 ft | 496 kts | 113° |
| 2026-05-04 12:34 | 52.05048 | -135.66454 | 31130 ft | 495 kts | 113° |
| 2026-05-04 12:34 | 52.02531 | -135.56091 | 31127 ft | 496 kts | 113° |
| 2026-05-04 12:35 | 51.99986 | -135.45666 | 31126 ft | 496 kts | 113° |
| 2026-05-04 12:35 | 51.98041 | -135.34882 | 31122 ft | 500 kts | 105° |
| 2026-05-04 12:36 | 51.96420 | -135.23891 | 31103 ft | 500 kts | 105° |
| 2026-05-04 12:36 | 51.94757 | -135.13022 | 31104 ft | 498 kts | 106° |
| 2026-05-04 12:37 | 51.93044 | -135.02100 | 31096 ft | 498 kts | 106° |
| 2026-05-04 12:37 | 51.91321 | -134.91289 | 31096 ft | 498 kts | 106° |
| 2026-05-04 12:38 | 51.89570 | -134.80428 | 31088 ft | 498 kts | 106° |
| 2026-05-04 12:38 | 51.87808 | -134.69595 | 31087 ft | 498 kts | 106° |
| 2026-05-04 12:39 | 51.86028 | -134.58737 | 31081 ft | 498 kts | 106° |
| 2026-05-04 12:39 | 51.84233 | -134.47873 | 31083 ft | 498 kts | 106° |
| 2026-05-04 12:40 | 51.82427 | -134.37009 | 31115 ft | 506 kts | 105° |
| 2026-05-04 12:40 | 51.81504 | -134.31491 | 31559 ft | 508 kts | 107° |
| 2026-05-04 12:40 | 51.80592 | -134.26042 | 32348 ft | 503 kts | 107° |
| 2026-05-04 12:40 | 51.79682 | -134.20638 | 32958 ft | 501 kts | 106° |
| 2026-05-04 12:41 | 51.78756 | -134.15146 | 33053 ft | 502 kts | 106° |
| 2026-05-04 12:41 | 51.76928 | -134.04364 | 33055 ft | 498 kts | 106° |
| 2026-05-04 12:42 | 51.75085 | -133.93559 | 33053 ft | 498 kts | 106° |
| 2026-05-04 12:42 | 51.73218 | -133.82681 | 33049 ft | 499 kts | 106° |
| 2026-05-04 12:43 | 51.71347 | -133.71846 | 33047 ft | 499 kts | 106° |
| 2026-05-04 12:43 | 51.69481 | -133.61107 | 33043 ft | 499 kts | 106° |
| 2026-05-04 12:44 | 51.67603 | -133.50368 | 33037 ft | 500 kts | 106° |
| 2026-05-04 12:44 | 51.65701 | -133.39557 | 33034 ft | 499 kts | 106° |
| 2026-05-04 12:45 | 51.63791 | -133.28761 | 33027 ft | 499 kts | 107° |
| 2026-05-04 12:45 | 51.61902 | -133.18152 | 33019 ft | 499 kts | 107° |
| 2026-05-04 12:46 | 51.59977 | -133.07399 | 33014 ft | 500 kts | 107° |
| 2026-05-04 12:46 | 51.58051 | -132.96710 | 33014 ft | 500 kts | 106° |
| 2026-05-04 12:47 | 51.56099 | -132.85933 | 33001 ft | 501 kts | 106° |
| 2026-05-04 12:47 | 51.54152 | -132.75256 | 33003 ft | 502 kts | 106° |
| 2026-05-04 12:48 | 51.52182 | -132.64508 | 33002 ft | 501 kts | 106° |
| 2026-05-04 12:48 | 51.50200 | -132.53763 | 33002 ft | 502 kts | 106° |
| 2026-05-04 12:49 | 51.48224 | -132.43105 | 33001 ft | 501 kts | 106° |
| 2026-05-04 12:49 | 51.46221 | -132.32370 | 33001 ft | 502 kts | 107° |
| 2026-05-04 12:50 | 51.44205 | -132.21625 | 32996 ft | 502 kts | 107° |
| 2026-05-04 12:50 | 51.42196 | -132.10979 | 32996 ft | 503 kts | 107° |
| 2026-05-04 12:51 | 51.40161 | -132.00258 | 32997 ft | 502 kts | 106° |
| 2026-05-04 12:51 | 51.38119 | -131.89558 | 32992 ft | 503 kts | 106° |
| 2026-05-04 12:52 | 51.36073 | -131.78900 | 32994 ft | 503 kts | 106° |
| 2026-05-04 12:52 | 51.34003 | -131.68176 | 32991 ft | 503 kts | 106° |
| 2026-05-04 12:53 | 51.31939 | -131.57542 | 32988 ft | 502 kts | 106° |
| 2026-05-04 12:53 | 51.29853 | -131.46858 | 32989 ft | 503 kts | 106° |
| 2026-05-04 12:54 | 51.27765 | -131.36217 | 32981 ft | 503 kts | 106° |
| 2026-05-04 12:54 | 51.25657 | -131.25539 | 32973 ft | 503 kts | 107° |
| 2026-05-04 12:55 | 51.23536 | -131.14850 | 32971 ft | 505 kts | 107° |
| 2026-05-04 12:55 | 51.21426 | -131.04275 | 32972 ft | 504 kts | 106° |
| 2026-05-04 12:56 | 51.19285 | -130.93604 | 32971 ft | 504 kts | 106° |
| 2026-05-04 12:56 | 51.17131 | -130.82927 | 32968 ft | 504 kts | 106° |
| 2026-05-04 12:57 | 51.14981 | -130.72330 | 32963 ft | 504 kts | 106° |
| 2026-05-04 12:57 | 51.12810 | -130.61687 | 32958 ft | 504 kts | 106° |
| 2026-05-04 12:58 | 51.10646 | -130.51129 | 32953 ft | 504 kts | 106° |
| 2026-05-04 12:58 | 51.08460 | -130.40521 | 32949 ft | 505 kts | 106° |
| 2026-05-04 12:59 | 51.06250 | -130.29858 | 32944 ft | 505 kts | 107° |
| 2026-05-04 12:59 | 51.04037 | -130.19237 | 32941 ft | 506 kts | 107° |
| 2026-05-04 13:00 | 51.01823 | -130.08662 | 32935 ft | 506 kts | 107° |
| 2026-05-04 13:00 | 50.99824 | -129.98038 | 32932 ft | 504 kts | 98° |
| 2026-05-04 13:01 | 50.99121 | -129.86998 | 32928 ft | 501 kts | 92° |
| 2026-05-04 13:01 | 50.98562 | -129.76044 | 32926 ft | 500 kts | 92° |
| 2026-05-04 13:02 | 50.97959 | -129.65045 | 32930 ft | 499 kts | 92° |
| 2026-05-04 13:02 | 50.97328 | -129.54025 | 32926 ft | 500 kts | 92° |
| 2026-05-04 13:03 | 50.96681 | -129.43074 | 32922 ft | 500 kts | 92° |
| 2026-05-04 13:03 | 50.96018 | -129.32126 | 32919 ft | 500 kts | 93° |
| 2026-05-04 13:04 | 50.95340 | -129.21126 | 32919 ft | 500 kts | 92° |
| 2026-05-04 13:04 | 50.94650 | -129.10149 | 32915 ft | 499 kts | 93° |
| 2026-05-04 13:05 | 50.93954 | -128.99236 | 32914 ft | 499 kts | 92° |
| 2026-05-04 13:05 | 50.93248 | -128.88342 | 32912 ft | 500 kts | 92° |
| 2026-05-04 13:06 | 50.92524 | -128.77331 | 32911 ft | 500 kts | 92° |
| 2026-05-04 13:06 | 50.91795 | -128.66409 | 32905 ft | 500 kts | 92° |
| 2026-05-04 13:07 | 50.91050 | -128.55408 | 32907 ft | 500 kts | 92° |
| 2026-05-04 13:07 | 50.90302 | -128.44510 | 32904 ft | 499 kts | 92° |
| 2026-05-04 13:08 | 50.89540 | -128.33566 | 32903 ft | 499 kts | 93° |
| 2026-05-04 13:08 | 50.88767 | -128.22612 | 32898 ft | 500 kts | 93° |
| 2026-05-04 13:09 | 50.87987 | -128.11710 | 32895 ft | 500 kts | 93° |
| 2026-05-04 13:09 | 50.87191 | -128.00726 | 32896 ft | 500 kts | 93° |
| 2026-05-04 13:10 | 50.86390 | -127.89830 | 32898 ft | 499 kts | 93° |
| 2026-05-04 13:10 | 50.85580 | -127.78948 | 32903 ft | 499 kts | 93° |
| 2026-05-04 13:11 | 50.84760 | -127.68064 | 32901 ft | 499 kts | 92° |
| 2026-05-04 13:11 | 50.83928 | -127.57164 | 32904 ft | 500 kts | 92° |
| 2026-05-04 13:12 | 50.83081 | -127.46211 | 32905 ft | 499 kts | 92° |
| 2026-05-04 13:12 | 50.82231 | -127.35345 | 32909 ft | 499 kts | 92° |
| 2026-05-04 13:13 | 50.81364 | -127.24403 | 32908 ft | 500 kts | 93° |
| 2026-05-04 13:13 | 50.80491 | -127.13514 | 32899 ft | 501 kts | 93° |
| 2026-05-04 13:14 | 50.79607 | -127.02616 | 32891 ft | 501 kts | 93° |
| 2026-05-04 13:14 | 50.78711 | -126.91702 | 32887 ft | 500 kts | 93° |
| 2026-05-04 13:15 | 50.77808 | -126.80831 | 32887 ft | 500 kts | 93° |
| 2026-05-04 13:15 | 50.76889 | -126.69906 | 32887 ft | 498 kts | 93° |
| 2026-05-04 13:16 | 50.75966 | -126.59045 | 32890 ft | 497 kts | 93° |
| 2026-05-04 13:16 | 50.75037 | -126.48231 | 32903 ft | 498 kts | 93° |
| 2026-05-04 13:17 | 50.74096 | -126.37409 | 32927 ft | 498 kts | 92° |
| 2026-05-04 13:17 | 50.73146 | -126.26591 | 32946 ft | 500 kts | 93° |
| 2026-05-04 13:18 | 50.72183 | -126.15745 | 32957 ft | 499 kts | 93° |
| 2026-05-04 13:18 | 50.71203 | -126.04844 | 32959 ft | 498 kts | 93° |
| 2026-05-04 13:19 | 50.70221 | -125.94017 | 32960 ft | 500 kts | 93° |
| 2026-05-04 13:19 | 50.69229 | -125.83212 | 32955 ft | 498 kts | 93° |
| 2026-05-04 13:20 | 50.68229 | -125.72427 | 32945 ft | 497 kts | 93° |
| 2026-05-04 13:20 | 50.67220 | -125.61646 | 32949 ft | 498 kts | 93° |
| 2026-05-04 13:21 | 50.66197 | -125.50835 | 32946 ft | 498 kts | 93° |
| 2026-05-04 13:21 | 50.65162 | -125.40013 | 32950 ft | 498 kts | 93° |
| 2026-05-04 13:22 | 50.64114 | -125.29159 | 32973 ft | 499 kts | 94° |
| 2026-05-04 13:22 | 50.63063 | -125.18381 | 32980 ft | 498 kts | 93° |
| 2026-05-04 13:23 | 50.62003 | -125.07622 | 32995 ft | 498 kts | 93° |
| 2026-05-04 13:23 | 50.60930 | -124.96832 | 33002 ft | 498 kts | 93° |
| 2026-05-04 13:24 | 50.59845 | -124.86026 | 33027 ft | 499 kts | 93° |
| 2026-05-04 13:24 | 50.58754 | -124.75275 | 33056 ft | 498 kts | 93° |
| 2026-05-04 13:25 | 50.57103 | -124.59173 | 33060 ft | 499 kts | 93° |
| 2026-05-04 13:25 | 50.55976 | -124.48326 | 33055 ft | 496 kts | 93° |
| 2026-05-04 13:26 | 50.54850 | -124.37585 | 33061 ft | 496 kts | 93° |
| 2026-05-04 13:26 | 50.53716 | -124.26862 | 33083 ft | 498 kts | 94° |
| 2026-05-04 13:27 | 50.52572 | -124.16142 | 33092 ft | 496 kts | 94° |
| 2026-05-04 13:27 | 50.51422 | -124.05464 | 33094 ft | 497 kts | 94° |
| 2026-05-04 13:28 | 50.50259 | -123.94762 | 33107 ft | 496 kts | 93° |
| 2026-05-04 13:28 | 50.49090 | -123.84106 | 33119 ft | 496 kts | 93° |
| 2026-05-04 13:29 | 50.47911 | -123.73442 | 33128 ft | 497 kts | 93° |
| 2026-05-04 13:29 | 50.46717 | -123.62743 | 33121 ft | 495 kts | 93° |
| 2026-05-04 13:30 | 50.45511 | -123.52023 | 33111 ft | 496 kts | 93° |
| 2026-05-04 13:30 | 50.44303 | -123.41390 | 33104 ft | 496 kts | 93° |
| 2026-05-04 13:31 | 50.43079 | -123.30699 | 33116 ft | 498 kts | 94° |
| 2026-05-04 13:31 | 50.41850 | -123.20059 | 33110 ft | 497 kts | 94° |
| 2026-05-04 13:32 | 50.40608 | -123.09383 | 33078 ft | 498 kts | 94° |
| 2026-05-04 13:32 | 50.39354 | -122.98713 | 33052 ft | 499 kts | 94° |
| 2026-05-04 13:33 | 50.38092 | -122.88062 | 33047 ft | 495 kts | 94° |
| 2026-05-04 13:33 | 50.36823 | -122.77424 | 33082 ft | 497 kts | 94° |
| 2026-05-04 13:34 | 50.35542 | -122.66781 | 33090 ft | 498 kts | 94° |
| 2026-05-04 13:34 | 50.34252 | -122.56147 | 33050 ft | 499 kts | 94° |
| 2026-05-04 13:35 | 50.32293 | -122.40163 | 33049 ft | 497 kts | 94° |
| 2026-05-04 13:36 | 50.30967 | -122.29454 | 33083 ft | 499 kts | 94° |
| 2026-05-04 13:36 | 50.29639 | -122.18804 | 33119 ft | 500 kts | 94° |
| 2026-05-04 13:37 | 50.28298 | -122.08144 | 33113 ft | 500 kts | 94° |
| 2026-05-04 13:37 | 50.26947 | -121.97492 | 33102 ft | 496 kts | 94° |
| 2026-05-04 13:38 | 50.25586 | -121.86830 | 33105 ft | 498 kts | 94° |
| 2026-05-04 13:38 | 50.24217 | -121.76195 | 33110 ft | 498 kts | 94° |
| 2026-05-04 13:39 | 50.22844 | -121.65610 | 33078 ft | 498 kts | 94° |
| 2026-05-04 13:39 | 50.21457 | -121.54998 | 33034 ft | 497 kts | 94° |
| 2026-05-04 13:40 | 50.20067 | -121.44437 | 33017 ft | 498 kts | 94° |
| 2026-05-04 13:40 | 50.18656 | -121.33804 | 33025 ft | 498 kts | 95° |
| 2026-05-04 13:41 | 50.17240 | -121.23211 | 33045 ft | 497 kts | 95° |
| 2026-05-04 13:41 | 50.15818 | -121.12644 | 33039 ft | 499 kts | 95° |
| 2026-05-04 13:42 | 50.13664 | -120.96799 | 33026 ft | 497 kts | 95° |
| 2026-05-04 13:42 | 50.12217 | -120.86240 | 33024 ft | 499 kts | 95° |
| 2026-05-04 13:43 | 50.10757 | -120.75665 | 33030 ft | 500 kts | 95° |
| 2026-05-04 13:43 | 50.09282 | -120.65070 | 33032 ft | 499 kts | 95° |
| 2026-05-04 13:44 | 50.07806 | -120.54531 | 33036 ft | 499 kts | 95° |
| 2026-05-04 13:44 | 50.06322 | -120.44007 | 33035 ft | 500 kts | 95° |
| 2026-05-04 13:45 | 50.04820 | -120.33437 | 33040 ft | 499 kts | 95° |
| 2026-05-04 13:45 | 50.03312 | -120.22892 | 33041 ft | 501 kts | 95° |
| 2026-05-04 13:46 | 50.01791 | -120.12337 | 33048 ft | 501 kts | 95° |
| 2026-05-04 13:46 | 50.00246 | -120.01751 | 33052 ft | 501 kts | 96° |
| 2026-05-04 13:47 | 49.98527 | -119.91215 | 33058 ft | 503 kts | 97° |
| 2026-05-04 13:47 | 49.96773 | -119.80679 | 33060 ft | 504 kts | 97° |
| 2026-05-04 13:48 | 49.94997 | -119.70095 | 33054 ft | 501 kts | 97° |
| 2026-05-04 13:48 | 49.93230 | -119.59628 | 33023 ft | 505 kts | 97° |
| 2026-05-04 13:49 | 49.91433 | -119.49066 | 32966 ft | 503 kts | 97° |
| 2026-05-04 13:49 | 49.89637 | -119.38566 | 32935 ft | 504 kts | 97° |
| 2026-05-04 13:50 | 49.87814 | -119.27977 | 32971 ft | 505 kts | 98° |
| 2026-05-04 13:50 | 49.86001 | -119.17510 | 32990 ft | 505 kts | 98° |
| 2026-05-04 13:51 | 49.84174 | -119.07032 | 33013 ft | 505 kts | 98° |
| 2026-05-04 13:51 | 49.82341 | -118.96577 | 33018 ft | 504 kts | 98° |
| 2026-05-04 13:52 | 49.79561 | -118.80828 | 32995 ft | 505 kts | 98° |
| 2026-05-04 13:53 | 49.77694 | -118.70334 | 32982 ft | 503 kts | 98° |
| 2026-05-04 13:53 | 49.75820 | -118.59863 | 32994 ft | 503 kts | 98° |
| 2026-05-04 13:54 | 49.72992 | -118.44172 | 33011 ft | 504 kts | 98° |
| 2026-05-04 13:55 | 49.70141 | -118.28488 | 32986 ft | 504 kts | 99° |
| 2026-05-04 13:55 | 49.67265 | -118.12810 | 32986 ft | 506 kts | 98° |
| 2026-05-04 13:56 | 49.65328 | -118.02312 | 32993 ft | 507 kts | 98° |
| 2026-05-04 13:57 | 49.62412 | -117.86636 | 33008 ft | 505 kts | 99° |
| 2026-05-04 13:58 | 49.58492 | -117.65763 | 33010 ft | 508 kts | 99° |
| 2026-05-04 13:58 | 49.55515 | -117.50073 | 32961 ft | 507 kts | 98° |
| 2026-05-04 13:59 | 49.53526 | -117.39661 | 32961 ft | 506 kts | 98° |
| 2026-05-04 14:00 | 49.50526 | -117.24051 | 32960 ft | 508 kts | 99° |
| 2026-05-04 14:00 | 49.47498 | -117.08437 | 32986 ft | 507 kts | 99° |
| 2026-05-04 14:01 | 49.45467 | -116.98033 | 33010 ft | 507 kts | 99° |
| 2026-05-04 14:02 | 49.42384 | -116.82342 | 33007 ft | 509 kts | 99° |
| 2026-05-04 14:02 | 49.40329 | -116.71960 | 32997 ft | 511 kts | 99° |
| 2026-05-04 14:03 | 49.38256 | -116.61543 | 33007 ft | 507 kts | 99° |
| 2026-05-04 14:03 | 49.36172 | -116.51122 | 33006 ft | 509 kts | 99° |
| 2026-05-04 14:04 | 49.33051 | -116.35616 | 33008 ft | 510 kts | 99° |
| 2026-05-04 14:04 | 49.30935 | -116.25176 | 33000 ft | 510 kts | 101° |
| 2026-05-04 14:05 | 49.27757 | -116.09599 | 33004 ft | 509 kts | 101° |
| 2026-05-04 14:06 | 49.25635 | -115.99263 | 33008 ft | 512 kts | 100° |
| 2026-05-04 14:06 | 49.23496 | -115.88904 | 33014 ft | 509 kts | 100° |
| 2026-05-04 14:07 | 49.21346 | -115.78536 | 33012 ft | 513 kts | 100° |
| 2026-05-04 14:07 | 49.19180 | -115.68153 | 33016 ft | 512 kts | 101° |
| 2026-05-04 14:08 | 49.17003 | -115.57774 | 33020 ft | 511 kts | 101° |
| 2026-05-04 14:08 | 49.14824 | -115.47427 | 33022 ft | 512 kts | 101° |
| 2026-05-04 14:09 | 49.11527 | -115.31883 | 33038 ft | 514 kts | 101° |
| 2026-05-04 14:10 | 49.08210 | -115.16359 | 33056 ft | 514 kts | 101° |
| 2026-05-04 14:10 | 49.05976 | -115.05971 | 33043 ft | 514 kts | 101° |
| 2026-05-04 14:11 | 49.03733 | -114.95597 | 33038 ft | 514 kts | 101° |
| 2026-05-04 14:11 | 49.00363 | -114.80103 | 33040 ft | 513 kts | 101° |
| 2026-05-04 14:12 | 48.97943 | -114.69836 | 33043 ft | 516 kts | 103° |
| 2026-05-04 14:13 | 48.94161 | -114.54476 | 33067 ft | 517 kts | 103° |
| 2026-05-04 14:13 | 48.91633 | -114.44275 | 33060 ft | 517 kts | 103° |
| 2026-05-04 14:14 | 48.89059 | -114.33941 | 33026 ft | 518 kts | 104° |
| 2026-05-04 14:14 | 48.85216 | -114.18604 | 33027 ft | 517 kts | 104° |
| 2026-05-04 14:15 | 48.80038 | -113.98098 | 32999 ft | 519 kts | 104° |
| 2026-05-04 14:16 | 48.76159 | -113.82860 | 33004 ft | 521 kts | 105° |
| 2026-05-04 14:17 | 48.72218 | -113.67481 | 33011 ft | 521 kts | 105° |
| 2026-05-04 14:18 | 48.68286 | -113.52245 | 33023 ft | 521 kts | 105° |
| 2026-05-04 14:19 | 48.62979 | -113.31837 | 33052 ft | 521 kts | 105° |
| 2026-05-04 14:19 | 48.60314 | -113.21653 | 33056 ft | 522 kts | 106° |
| 2026-05-04 14:20 | 48.57638 | -113.11475 | 33072 ft | 522 kts | 106° |
| 2026-05-04 14:20 | 48.54942 | -113.01266 | 33084 ft | 522 kts | 106° |
| 2026-05-04 14:21 | 48.50870 | -112.85938 | 33087 ft | 523 kts | 106° |
| 2026-05-04 14:21 | 48.48163 | -112.75794 | 33085 ft | 523 kts | 106° |
| 2026-05-04 14:22 | 48.45436 | -112.65627 | 33087 ft | 522 kts | 106° |
| 2026-05-04 14:22 | 48.42691 | -112.55437 | 33075 ft | 523 kts | 106° |
| 2026-05-04 14:23 | 48.38566 | -112.40202 | 33067 ft | 526 kts | 107° |
| 2026-05-04 14:24 | 48.35812 | -112.30092 | 33064 ft | 523 kts | 107° |
| 2026-05-04 14:24 | 48.33011 | -112.19841 | 33056 ft | 528 kts | 108° |
| 2026-05-04 14:25 | 48.30230 | -112.09723 | 33052 ft | 527 kts | 107° |
| 2026-05-04 14:25 | 48.26022 | -111.94479 | 33047 ft | 528 kts | 108° |
| 2026-05-04 14:26 | 48.23197 | -111.84302 | 33037 ft | 529 kts | 108° |
| 2026-05-04 14:26 | 48.20367 | -111.74153 | 33046 ft | 526 kts | 108° |
| 2026-05-04 14:27 | 48.17522 | -111.63992 | 33049 ft | 528 kts | 108° |
| 2026-05-04 14:27 | 48.14655 | -111.53796 | 33046 ft | 526 kts | 108° |
| 2026-05-04 14:28 | 48.11792 | -111.43658 | 33049 ft | 528 kts | 108° |
| 2026-05-04 14:28 | 48.08931 | -111.33569 | 33042 ft | 529 kts | 109° |
| 2026-05-04 14:29 | 48.03156 | -111.13330 | 33037 ft | 528 kts | 109° |
| 2026-05-04 14:30 | 48.00250 | -111.03210 | 33031 ft | 528 kts | 109° |
| 2026-05-04 14:31 | 47.95874 | -110.88051 | 33035 ft | 530 kts | 110° |
| 2026-05-04 14:32 | 47.90005 | -110.67866 | 33043 ft | 531 kts | 110° |
| 2026-05-04 14:32 | 47.87022 | -110.57671 | 33029 ft | 531 kts | 110° |
| 2026-05-04 14:33 | 47.84063 | -110.47598 | 33032 ft | 534 kts | 110° |
| 2026-05-04 14:33 | 47.81073 | -110.37464 | 33032 ft | 533 kts | 110° |
| 2026-05-04 14:34 | 47.78064 | -110.27308 | 33022 ft | 533 kts | 111° |
| 2026-05-04 14:34 | 47.75062 | -110.17216 | 33020 ft | 533 kts | 111° |
| 2026-05-04 14:35 | 47.72046 | -110.07116 | 33018 ft | 535 kts | 111° |
| 2026-05-04 14:35 | 47.69020 | -109.97028 | 33025 ft | 536 kts | 111° |
| 2026-05-04 14:36 | 47.65973 | -109.86909 | 33021 ft | 537 kts | 111° |
| 2026-05-04 14:36 | 47.62917 | -109.76803 | 33019 ft | 536 kts | 111° |
| 2026-05-04 14:37 | 47.59838 | -109.66660 | 33025 ft | 537 kts | 111° |
| 2026-05-04 14:37 | 47.56749 | -109.56528 | 33030 ft | 537 kts | 112° |
| 2026-05-04 14:38 | 47.53675 | -109.46484 | 33027 ft | 538 kts | 111° |
| 2026-05-04 14:38 | 47.50588 | -109.36437 | 33029 ft | 541 kts | 112° |
| 2026-05-04 14:39 | 47.47470 | -109.26334 | 33013 ft | 539 kts | 112° |
| 2026-05-04 14:39 | 47.44342 | -109.16235 | 33013 ft | 540 kts | 113° |
| 2026-05-04 14:40 | 47.39627 | -109.01094 | 33024 ft | 539 kts | 113° |
| 2026-05-04 14:40 | 47.36496 | -108.91087 | 33021 ft | 540 kts | 113° |
| 2026-05-04 14:41 | 47.33322 | -108.80984 | 33022 ft | 540 kts | 113° |
| 2026-05-04 14:42 | 47.26973 | -108.60896 | 33011 ft | 542 kts | 113° |
| 2026-05-04 14:42 | 47.23774 | -108.50832 | 33010 ft | 544 kts | 114° |
| 2026-05-04 14:43 | 47.20567 | -108.40787 | 33014 ft | 546 kts | 114° |
| 2026-05-04 14:43 | 47.17342 | -108.30721 | 33007 ft | 546 kts | 115° |
| 2026-05-04 14:44 | 47.14104 | -108.20660 | 32996 ft | 546 kts | 115° |
| 2026-05-04 14:44 | 47.10867 | -108.10638 | 32984 ft | 545 kts | 115° |
| 2026-05-04 14:45 | 47.07610 | -108.00591 | 32996 ft | 546 kts | 115° |
| 2026-05-04 14:45 | 47.04335 | -107.90532 | 32989 ft | 547 kts | 115° |
| 2026-05-04 14:46 | 47.01044 | -107.80463 | 32983 ft | 546 kts | 115° |
| 2026-05-04 14:46 | 46.97726 | -107.70350 | 32984 ft | 547 kts | 115° |
| 2026-05-04 14:47 | 46.94423 | -107.60319 | 32979 ft | 548 kts | 115° |
| 2026-05-04 14:47 | 46.91112 | -107.50307 | 32974 ft | 548 kts | 115° |
| 2026-05-04 14:48 | 46.87758 | -107.40202 | 32980 ft | 549 kts | 115° |
| 2026-05-04 14:48 | 46.84404 | -107.30136 | 32969 ft | 548 kts | 116° |
| 2026-05-04 14:49 | 46.81065 | -107.20158 | 32983 ft | 548 kts | 116° |
| 2026-05-04 14:49 | 46.77703 | -107.10146 | 32971 ft | 548 kts | 116° |
| 2026-05-04 14:50 | 46.74331 | -107.00141 | 32974 ft | 550 kts | 116° |
| 2026-05-04 14:50 | 46.70928 | -106.90086 | 32983 ft | 551 kts | 116° |
| 2026-05-04 14:51 | 46.67546 | -106.80129 | 32971 ft | 550 kts | 116° |
| 2026-05-04 14:51 | 46.64156 | -106.70187 | 32976 ft | 550 kts | 117° |
| 2026-05-04 14:52 | 46.60753 | -106.60246 | 32986 ft | 549 kts | 117° |
| 2026-05-04 14:52 | 46.57308 | -106.50219 | 32988 ft | 548 kts | 117° |
| 2026-05-04 14:53 | 46.53861 | -106.40225 | 32983 ft | 550 kts | 117° |
| 2026-05-04 14:53 | 46.50426 | -106.30302 | 32963 ft | 551 kts | 118° |
| 2026-05-04 14:54 | 46.46993 | -106.20425 | 32958 ft | 550 kts | 118° |
| 2026-05-04 14:54 | 46.43534 | -106.10507 | 32976 ft | 549 kts | 118° |
| 2026-05-04 14:55 | 46.40072 | -106.00620 | 32975 ft | 551 kts | 118° |
| 2026-05-04 14:55 | 46.36730 | -105.90691 | 32970 ft | 549 kts | 112° |
| 2026-05-04 14:56 | 46.34050 | -105.80312 | 32988 ft | 550 kts | 110° |
| 2026-05-04 14:56 | 46.31368 | -105.69968 | 32983 ft | 550 kts | 111° |
| 2026-05-04 14:57 | 46.28639 | -105.59609 | 32966 ft | 548 kts | 111° |
| 2026-05-04 14:57 | 46.25894 | -105.49305 | 32973 ft | 550 kts | 111° |
| 2026-05-04 14:58 | 46.23129 | -105.39014 | 32965 ft | 549 kts | 112° |
| 2026-05-04 14:58 | 46.20352 | -105.28745 | 32951 ft | 550 kts | 112° |
| 2026-05-04 14:59 | 46.17543 | -105.18413 | 32946 ft | 552 kts | 112° |
| 2026-05-04 15:00 | 46.13324 | -105.02998 | 32944 ft | 553 kts | 112° |
| 2026-05-04 15:00 | 46.10496 | -104.92725 | 32927 ft | 553 kts | 113° |
| 2026-05-04 15:01 | 46.06222 | -104.77284 | 32944 ft | 550 kts | 113° |
| 2026-05-04 15:01 | 46.03392 | -104.67118 | 32935 ft | 551 kts | 113° |
| 2026-05-04 15:02 | 46.00534 | -104.56893 | 32928 ft | 551 kts | 112° |
| 2026-05-04 15:02 | 45.97667 | -104.46680 | 32927 ft | 550 kts | 112° |
| 2026-05-04 15:03 | 45.94793 | -104.36485 | 32930 ft | 551 kts | 113° |
| 2026-05-04 15:03 | 45.91884 | -104.26206 | 32918 ft | 552 kts | 114° |
| 2026-05-04 15:04 | 45.88996 | -104.16048 | 32912 ft | 551 kts | 114° |
| 2026-05-04 15:04 | 45.86074 | -104.05814 | 32912 ft | 553 kts | 114° |
| 2026-05-04 15:05 | 45.83161 | -103.95651 | 32922 ft | 553 kts | 114° |
| 2026-05-04 15:05 | 45.80222 | -103.85438 | 32918 ft | 552 kts | 114° |
| 2026-05-04 15:06 | 45.77275 | -103.75245 | 32911 ft | 552 kts | 114° |
| 2026-05-04 15:07 | 45.72858 | -103.60041 | 32912 ft | 553 kts | 113° |
| 2026-05-04 15:07 | 45.69897 | -103.49904 | 32907 ft | 552 kts | 114° |
| 2026-05-04 15:08 | 45.66929 | -103.39781 | 32909 ft | 551 kts | 113° |
| 2026-05-04 15:08 | 45.63971 | -103.29732 | 32882 ft | 550 kts | 114° |
| 2026-05-04 15:09 | 45.60971 | -103.19582 | 32882 ft | 552 kts | 114° |
| 2026-05-04 15:09 | 45.57986 | -103.09528 | 32881 ft | 550 kts | 114° |
| 2026-05-04 15:10 | 45.53468 | -102.94379 | 32875 ft | 551 kts | 114° |
| 2026-05-04 15:11 | 45.48947 | -102.79314 | 32881 ft | 552 kts | 114° |
| 2026-05-04 15:11 | 45.45926 | -102.69298 | 32876 ft | 550 kts | 114° |
| 2026-05-04 15:12 | 45.42877 | -102.59226 | 32875 ft | 549 kts | 115° |
| 2026-05-04 15:12 | 45.39825 | -102.49191 | 32870 ft | 550 kts | 114° |
| 2026-05-04 15:13 | 45.36773 | -102.39188 | 32875 ft | 552 kts | 114° |
| 2026-05-04 15:13 | 45.33712 | -102.29198 | 32864 ft | 549 kts | 115° |
| 2026-05-04 15:14 | 45.30652 | -102.19250 | 32862 ft | 550 kts | 115° |
| 2026-05-04 15:14 | 45.27564 | -102.09249 | 32865 ft | 551 kts | 115° |
| 2026-05-04 15:15 | 45.24495 | -101.99353 | 32865 ft | 549 kts | 115° |
| 2026-05-04 15:15 | 45.21406 | -101.89427 | 32867 ft | 550 kts | 115° |
| 2026-05-04 15:16 | 45.16732 | -101.74482 | 32873 ft | 549 kts | 115° |
| 2026-05-04 15:17 | 45.12056 | -101.59616 | 32867 ft | 549 kts | 115° |
| 2026-05-04 15:17 | 45.07376 | -101.44821 | 32868 ft | 550 kts | 115° |
| 2026-05-04 15:18 | 45.04243 | -101.34966 | 32871 ft | 550 kts | 116° |
| 2026-05-04 15:19 | 44.99505 | -101.20129 | 32842 ft | 549 kts | 116° |
| 2026-05-04 15:19 | 44.94767 | -101.05379 | 32840 ft | 550 kts | 116° |
| 2026-05-04 15:20 | 44.91613 | -100.95606 | 32836 ft | 548 kts | 116° |
| 2026-05-04 15:20 | 44.88417 | -100.85738 | 32833 ft | 550 kts | 116° |
| 2026-05-04 15:21 | 44.85247 | -100.75988 | 32834 ft | 548 kts | 116° |
| 2026-05-04 15:22 | 44.80457 | -100.61327 | 32815 ft | 548 kts | 116° |
| 2026-05-04 15:22 | 44.75666 | -100.46738 | 32815 ft | 547 kts | 116° |
| 2026-05-04 15:23 | 44.72467 | -100.37047 | 32823 ft | 547 kts | 116° |
| 2026-05-04 15:23 | 44.69237 | -100.27292 | 32792 ft | 545 kts | 117° |
| 2026-05-04 15:24 | 44.63373 | -100.07606 | 32801 ft | 547 kts | 112° |
| 2026-05-04 15:25 | 44.60639 | -99.97720 | 32796 ft | 546 kts | 112° |
| 2026-05-04 15:26 | 44.56464 | -99.82800 | 32793 ft | 546 kts | 113° |
| 2026-05-04 15:26 | 44.52260 | -99.67925 | 32786 ft | 547 kts | 113° |
| 2026-05-04 15:27 | 44.48045 | -99.53127 | 32785 ft | 547 kts | 113° |
| 2026-05-04 15:28 | 44.43795 | -99.38303 | 32782 ft | 544 kts | 113° |
| 2026-05-04 15:29 | 44.39527 | -99.23511 | 32775 ft | 545 kts | 114° |
| 2026-05-04 15:30 | 44.29530 | -98.89211 | 32763 ft | 543 kts | 114° |
| 2026-05-04 15:31 | 44.25239 | -98.74632 | 32757 ft | 543 kts | 114° |
| 2026-05-04 15:32 | 44.18010 | -98.50263 | 32751 ft | 547 kts | 114° |
| 2026-05-04 15:34 | 44.10739 | -98.25980 | 32734 ft | 543 kts | 115° |
| 2026-05-04 15:34 | 44.06358 | -98.11457 | 32745 ft | 542 kts | 115° |
| 2026-05-04 15:35 | 44.01973 | -97.97008 | 32739 ft | 542 kts | 115° |
| 2026-05-04 15:36 | 43.97562 | -97.82555 | 32738 ft | 540 kts | 114° |
| 2026-05-04 15:36 | 43.94614 | -97.72938 | 32735 ft | 542 kts | 115° |
| 2026-05-04 15:37 | 43.91656 | -97.63327 | 32733 ft | 542 kts | 115° |
| 2026-05-04 15:37 | 43.88681 | -97.53695 | 32728 ft | 540 kts | 115° |
| 2026-05-04 15:38 | 43.85719 | -97.44141 | 32724 ft | 540 kts | 115° |
| 2026-05-04 15:38 | 43.82732 | -97.34544 | 32719 ft | 541 kts | 115° |
| 2026-05-04 15:39 | 43.79750 | -97.24996 | 32704 ft | 540 kts | 115° |
| 2026-05-04 15:40 | 43.75272 | -97.10719 | 32700 ft | 538 kts | 115° |
| 2026-05-04 15:40 | 43.72280 | -97.01228 | 32705 ft | 539 kts | 115° |
| 2026-05-04 15:41 | 43.69276 | -96.91733 | 32700 ft | 538 kts | 115° |
| 2026-05-04 15:41 | 43.66283 | -96.82260 | 32702 ft | 540 kts | 113° |
| 2026-05-04 15:42 | 43.64458 | -96.72224 | 32709 ft | 541 kts | 96° |
| 2026-05-04 15:42 | 43.63756 | -96.61829 | 32705 ft | 540 kts | 94° |
| 2026-05-04 15:43 | 43.63071 | -96.51504 | 32701 ft | 541 kts | 94° |
| 2026-05-04 15:43 | 43.62365 | -96.41200 | 32697 ft | 540 kts | 94° |
| 2026-05-04 15:44 | 43.61637 | -96.30835 | 32687 ft | 541 kts | 95° |
| 2026-05-04 15:44 | 43.60901 | -96.20547 | 32683 ft | 540 kts | 95° |
| 2026-05-04 15:45 | 43.60151 | -96.10259 | 32687 ft | 539 kts | 95° |
| 2026-05-04 15:45 | 43.59388 | -95.99923 | 32687 ft | 541 kts | 95° |
| 2026-05-04 15:46 | 43.58615 | -95.89609 | 32684 ft | 539 kts | 96° |
| 2026-05-04 15:46 | 43.57837 | -95.79349 | 32682 ft | 539 kts | 95° |
| 2026-05-04 15:47 | 43.57042 | -95.69003 | 32683 ft | 539 kts | 95° |
| 2026-05-04 15:47 | 43.56245 | -95.58749 | 32681 ft | 540 kts | 95° |
| 2026-05-04 15:48 | 43.55435 | -95.48448 | 32683 ft | 541 kts | 96° |
| 2026-05-04 15:48 | 43.54202 | -95.33007 | 32670 ft | 541 kts | 96° |
| 2026-05-04 15:49 | 43.53366 | -95.22687 | 32658 ft | 539 kts | 96° |
| 2026-05-04 15:49 | 43.52529 | -95.12470 | 32656 ft | 540 kts | 96° |
| 2026-05-04 15:50 | 43.51676 | -95.02166 | 32655 ft | 541 kts | 96° |
| 2026-05-04 15:50 | 43.50812 | -94.91847 | 32660 ft | 540 kts | 96° |
| 2026-05-04 15:51 | 43.49945 | -94.81606 | 32660 ft | 539 kts | 96° |
| 2026-05-04 15:51 | 43.49067 | -94.71349 | 32666 ft | 539 kts | 96° |
| 2026-05-04 15:52 | 43.48175 | -94.61030 | 32656 ft | 541 kts | 96° |
| 2026-05-04 15:52 | 43.47274 | -94.50732 | 32667 ft | 538 kts | 96° |
| 2026-05-04 15:53 | 43.46363 | -94.40415 | 32664 ft | 540 kts | 96° |
| 2026-05-04 15:53 | 43.45444 | -94.30130 | 32645 ft | 540 kts | 97° |
| 2026-05-04 15:54 | 43.44523 | -94.19907 | 32650 ft | 539 kts | 97° |
| 2026-05-04 15:54 | 43.43589 | -94.09664 | 32641 ft | 538 kts | 97° |
| 2026-05-04 15:55 | 43.42639 | -93.99347 | 32638 ft | 539 kts | 97° |
| 2026-05-04 15:55 | 43.41694 | -93.89171 | 32640 ft | 540 kts | 97° |
| 2026-05-04 15:56 | 43.40733 | -93.78944 | 32640 ft | 538 kts | 97° |
| 2026-05-04 15:56 | 43.39765 | -93.68732 | 32645 ft | 538 kts | 97° |
| 2026-05-04 15:57 | 43.38789 | -93.58531 | 32643 ft | 540 kts | 97° |
| 2026-05-04 15:57 | 43.37803 | -93.48327 | 32648 ft | 535 kts | 97° |
| 2026-05-04 15:58 | 43.36807 | -93.38116 | 32641 ft | 539 kts | 97° |
| 2026-05-04 15:58 | 43.35802 | -93.27912 | 32622 ft | 538 kts | 98° |
| 2026-05-04 15:59 | 43.34790 | -93.17731 | 32622 ft | 537 kts | 98° |
| 2026-05-04 15:59 | 43.33773 | -93.07595 | 32624 ft | 537 kts | 98° |
| 2026-05-04 16:00 | 43.32744 | -92.97431 | 32625 ft | 537 kts | 98° |
| 2026-05-04 16:00 | 43.31707 | -92.87284 | 32625 ft | 537 kts | 98° |
| 2026-05-04 16:01 | 43.30660 | -92.77125 | 32627 ft | 537 kts | 98° |
| 2026-05-04 16:01 | 43.29604 | -92.66978 | 32623 ft | 536 kts | 98° |
| 2026-05-04 16:02 | 43.28541 | -92.56847 | 32622 ft | 536 kts | 98° |
| 2026-05-04 16:03 | 43.26930 | -92.41653 | 32614 ft | 533 kts | 98° |
| 2026-05-04 16:03 | 43.25848 | -92.31566 | 32603 ft | 535 kts | 98° |
| 2026-05-04 16:04 | 43.24753 | -92.21439 | 32600 ft | 535 kts | 98° |
| 2026-05-04 16:04 | 43.23100 | -92.06307 | 32605 ft | 535 kts | 98° |
| 2026-05-04 16:05 | 43.21986 | -91.96223 | 32605 ft | 533 kts | 98° |
| 2026-05-04 16:06 | 43.20296 | -91.81082 | 32616 ft | 535 kts | 99° |
| 2026-05-04 16:07 | 43.16729 | -91.61394 | 32630 ft | 533 kts | 115° |
| 2026-05-04 16:08 | 43.10562 | -91.42950 | 32608 ft | 531 kts | 116° |
| 2026-05-04 16:09 | 43.02674 | -91.20039 | 32609 ft | 531 kts | 117° |
| 2026-05-04 16:10 | 42.96354 | -91.01855 | 32613 ft | 530 kts | 117° |
| 2026-05-04 16:11 | 42.89999 | -90.83723 | 32629 ft | 528 kts | 117° |
| 2026-05-04 16:12 | 42.80462 | -90.56763 | 30739 ft | 528 kts | 117° |
| 2026-05-04 16:13 | 42.77259 | -90.47770 | 29606 ft | 518 kts | 117° |
| 2026-05-04 16:13 | 42.74149 | -90.39066 | 28620 ft | 507 kts | 117° |
| 2026-05-04 16:14 | 42.71067 | -90.30469 | 27549 ft | 498 kts | 117° |
| 2026-05-04 16:14 | 42.68059 | -90.22124 | 26490 ft | 489 kts | 118° |
| 2026-05-04 16:15 | 42.63611 | -90.09862 | 24907 ft | 476 kts | 118° |
| 2026-05-04 16:16 | 42.60693 | -90.01847 | 23863 ft | 467 kts | 118° |
| 2026-05-04 16:16 | 42.56371 | -89.90022 | 22281 ft | 471 kts | 118° |
| 2026-05-04 16:17 | 42.53482 | -89.82140 | 21199 ft | 465 kts | 118° |
| 2026-05-04 16:18 | 42.50913 | -89.69672 | 19861 ft | 455 kts | 99° |
| 2026-05-04 16:18 | 42.50389 | -89.65453 | 19497 ft | 452 kts | 99° |
| 2026-05-04 16:19 | 42.48864 | -89.53133 | 18418 ft | 431 kts | 99° |
| 2026-05-04 16:19 | 42.47882 | -89.45217 | 17704 ft | 418 kts | 99° |
| 2026-05-04 16:20 | 42.46478 | -89.33860 | 16674 ft | 401 kts | 100° |
| 2026-05-04 16:20 | 42.45565 | -89.26448 | 15990 ft | 392 kts | 100° |
| 2026-05-04 16:21 | 42.44221 | -89.15607 | 15010 ft | 386 kts | 100° |
| 2026-05-04 16:22 | 42.43325 | -89.08485 | 14371 ft | 382 kts | 100° |
| 2026-05-04 16:22 | 42.41988 | -88.97917 | 13427 ft | 375 kts | 100° |
| 2026-05-04 16:23 | 42.40688 | -88.87622 | 12483 ft | 361 kts | 100° |
| 2026-05-04 16:24 | 42.39008 | -88.74527 | 11332 ft | 344 kts | 100° |
| 2026-05-04 16:25 | 42.38197 | -88.68248 | 10786 ft | 334 kts | 100° |
| 2026-05-04 16:26 | 42.36630 | -88.56232 | 10535 ft | 322 kts | 100° |
| 2026-05-04 16:26 | 42.35449 | -88.47243 | 10513 ft | 322 kts | 100° |
| 2026-05-04 16:27 | 42.34650 | -88.41273 | 10456 ft | 323 kts | 104° |
| 2026-05-04 16:28 | 42.31286 | -88.33606 | 10388 ft | 317 kts | 129° |
| 2026-05-04 16:28 | 42.27170 | -88.26650 | 10320 ft | 314 kts | 135° |
| 2026-05-04 16:29 | 42.21491 | -88.17705 | 10237 ft | 312 kts | 134° |
| 2026-05-04 16:30 | 42.16242 | -88.13044 | 10161 ft | 300 kts | 164° |
| 2026-05-04 16:31 | 42.12337 | -88.11028 | 10124 ft | 298 kts | 164° |
| 2026-05-04 16:31 | 42.06505 | -88.08048 | 10116 ft | 299 kts | 165° |
| 2026-05-04 16:32 | 42.00700 | -88.05006 | 9905 ft | 295 kts | 164° |
| 2026-05-04 16:33 | 41.96867 | -88.02975 | 9187 ft | 293 kts | 164° |
| 2026-05-04 16:33 | 41.93077 | -88.00980 | 8529 ft | 289 kts | 164° |
| 2026-05-04 16:34 | 41.89367 | -87.98971 | 7954 ft | 285 kts | 154° |
| 2026-05-04 16:34 | 41.87915 | -87.97163 | 7927 ft | 280 kts | 126° |
| 2026-05-04 16:35 | 41.87283 | -87.89983 | 7843 ft | 245 kts | 89° |
| 2026-05-04 16:35 | 41.87494 | -87.82363 | 7794 ft | 284 kts | 89° |
| 2026-05-04 16:36 | 41.87567 | -87.79682 | 7401 ft | 295 kts | 89° |
| 2026-05-04 16:36 | 41.87714 | -87.74397 | 7349 ft | 267 kts | 89° |
| 2026-05-04 16:37 | 41.87853 | -87.69178 | 7559 ft | 286 kts | 89° |
| 2026-05-04 16:37 | 41.87923 | -87.66544 | 7546 ft | 282 kts | 89° |
| 2026-05-04 16:37 | 41.88064 | -87.61140 | 7154 ft | 298 kts | 89° |
| 2026-05-04 16:38 | 41.88208 | -87.55541 | 6419 ft | 300 kts | 89° |
| 2026-05-04 16:39 | 41.88524 | -87.47134 | 5385 ft | 300 kts | 75° |
| 2026-05-04 16:39 | 41.90940 | -87.42995 | 5044 ft | 279 kts | 22° |
| 2026-05-04 16:40 | 41.94609 | -87.42583 | 4979 ft | 263 kts | 335° |
| 2026-05-04 16:40 | 41.97322 | -87.45537 | 4964 ft | 247 kts | 296° |
| 2026-05-04 16:41 | 41.97555 | -87.49842 | 4957 ft | 238 kts | 250° |
| 2026-05-04 16:41 | 41.96614 | -87.56450 | 4993 ft | 240 kts | 263° |
| 2026-05-04 16:42 | 41.96435 | -87.63245 | 4339 ft | 242 kts | 268° |
| 2026-05-04 16:43 | 41.96466 | -87.67709 | 3744 ft | 233 kts | 268° |
| 2026-05-04 16:43 | 41.96507 | -87.71896 | 3178 ft | 215 kts | 268° |
| 2026-05-04 16:43 | 41.96521 | -87.73876 | 2904 ft | 207 kts | 267° |
| 2026-05-04 16:44 | 41.96551 | -87.80537 | 1989 ft | 148 kts | 265° |
| 2026-05-04 16:45 | 41.96555 | -87.83170 | 1604 ft | 140 kts | 265° |
| 2026-05-04 16:46 | 41.96564 | -87.87147 | 1011 ft | 146 kts | 264° |
| 2026-05-04 16:46 | 41.96591 | -87.89932 | 697 ft | 142 kts | 266° |
| 2026-05-04 16:47 | 41.96568 | -87.91806 | 681 ft | 56 kts | 269° |
| 2026-05-04 16:47 | 41.96695 | -87.92081 | 681 ft | 14 kts | 5° |
| 2026-05-04 16:48 | 41.96734 | -87.91567 | 681 ft | 25 kts | 90° |
| 2026-05-04 16:48 | 41.96736 | -87.91337 | 681 ft | 23 kts | 89° |
| 2026-05-04 16:49 | 41.96733 | -87.90932 | 681 ft | 19 kts | 91° |
| 2026-05-04 16:49 | 41.96737 | -87.90527 | 681 ft | 20 kts | 90° |
| 2026-05-04 16:50 | 41.96732 | -87.90166 | 681 ft | 18 kts | 94° |
| 2026-05-04 16:50 | 41.96738 | -87.89828 | 681 ft | 19 kts | 90° |
| 2026-05-04 16:51 | 41.96738 | -87.89501 | 680 ft | 15 kts | 85° |
| 2026-05-04 16:51 | 41.96813 | -87.89437 | 681 ft | 18 kts | 359° |
| 2026-05-04 16:51 | 41.97092 | -87.89440 | 681 ft | 18 kts | 360° |
| 2026-05-04 16:52 | 41.97191 | -87.89243 | 681 ft | 22 kts | 89° |
| 2026-05-04 16:52 | 41.97192 | -87.89036 | 680 ft | 20 kts | 90° |
| 2026-05-04 16:53 | 41.97258 | -87.88897 | 680 ft | 11 kts | 71° |
| 2026-05-04 16:53 | 41.97307 | -87.88725 | 680 ft | 4 kts | 1° |
| 2026-05-04 16:54 | 41.97342 | -87.88724 | 680 ft | 5 kts | 0° |
| 2026-05-04 16:55 | 41.97346 | -87.88724 | 680 ft | 0 kts | 0° |